<?xml version="1.0" encoding="UTF-8" standalone="no" ?>
<gpx xmlns="http://www.topografix.com/GPX/1/1" xmlns:xsi="http://www.w3.org/2001/XMLSchema-instance" xsi:schemaLocation="http://www.topografix.com/GPX/1/1 http://www.topografix.com/GPX/1/1/gpx.xsd" version="1.1" creator="VisuGPX - https://www.visugpx.com">
  <metadata>
    <name>Crête des Cognotons</name>
    <desc><![CDATA[petite sortie d'une heure pour décrassage.]]></desc>
  </metadata>
  <trk>
    <name><![CDATA[160420110029 on GPSies.com]]></name>
    <extensions>
      <line xmlns="http://www.topografix.com/GPX/gpx_style/0/2">
        <color>0000FF</color>
        <width>4</width>
      </line>
    </extensions>
    <trkseg>
      <trkpt lat="44.38657" lon="6.649">
        <ele>1136.6</ele>
        <time>2016-04-20T11:00:36Z</time>
      </trkpt>
      <trkpt lat="44.38652" lon="6.64874">
        <ele>1136.3</ele>
        <time>2016-04-20T11:00:40Z</time>
      </trkpt>
      <trkpt lat="44.38646" lon="6.6485">
        <ele>1136.1</ele>
        <time>2016-04-20T11:00:44Z</time>
      </trkpt>
      <trkpt lat="44.38642" lon="6.64825">
        <ele>1135.8</ele>
        <time>2016-04-20T11:00:48Z</time>
      </trkpt>
      <trkpt lat="44.38639" lon="6.64798">
        <ele>1135.2</ele>
        <time>2016-04-20T11:00:52Z</time>
      </trkpt>
      <trkpt lat="44.38641" lon="6.64769">
        <ele>1134.5</ele>
        <time>2016-04-20T11:00:56Z</time>
      </trkpt>
      <trkpt lat="44.3864" lon="6.6474">
        <ele>1134</ele>
        <time>2016-04-20T11:01:00Z</time>
      </trkpt>
      <trkpt lat="44.38638" lon="6.64712">
        <ele>1133.8</ele>
        <time>2016-04-20T11:01:04Z</time>
      </trkpt>
      <trkpt lat="44.38644" lon="6.64681">
        <ele>1133.8</ele>
        <time>2016-04-20T11:01:08Z</time>
      </trkpt>
      <trkpt lat="44.38654" lon="6.64653">
        <ele>1133.6</ele>
        <time>2016-04-20T11:01:12Z</time>
      </trkpt>
      <trkpt lat="44.38666" lon="6.64627">
        <ele>1133</ele>
        <time>2016-04-20T11:01:16Z</time>
      </trkpt>
      <trkpt lat="44.38675" lon="6.64598">
        <ele>1132.4</ele>
        <time>2016-04-20T11:01:20Z</time>
      </trkpt>
      <trkpt lat="44.3868" lon="6.64559">
        <ele>1132.7</ele>
        <time>2016-04-20T11:01:24Z</time>
      </trkpt>
      <trkpt lat="44.38682" lon="6.64523">
        <ele>1133.4</ele>
        <time>2016-04-20T11:01:28Z</time>
      </trkpt>
      <trkpt lat="44.38684" lon="6.64488">
        <ele>1133.7</ele>
        <time>2016-04-20T11:01:32Z</time>
      </trkpt>
      <trkpt lat="44.38687" lon="6.64453">
        <ele>1133.3</ele>
        <time>2016-04-20T11:01:36Z</time>
      </trkpt>
      <trkpt lat="44.38689" lon="6.64418">
        <ele>1133</ele>
        <time>2016-04-20T11:01:40Z</time>
      </trkpt>
      <trkpt lat="44.38692" lon="6.64384">
        <ele>1132.9</ele>
        <time>2016-04-20T11:01:44Z</time>
      </trkpt>
      <trkpt lat="44.38694" lon="6.6435">
        <ele>1132.7</ele>
        <time>2016-04-20T11:01:48Z</time>
      </trkpt>
      <trkpt lat="44.38696" lon="6.64319">
        <ele>1132.5</ele>
        <time>2016-04-20T11:01:52Z</time>
      </trkpt>
      <trkpt lat="44.38697" lon="6.64288">
        <ele>1132</ele>
        <time>2016-04-20T11:01:56Z</time>
      </trkpt>
      <trkpt lat="44.38701" lon="6.64254">
        <ele>1131.5</ele>
        <time>2016-04-20T11:02:00Z</time>
      </trkpt>
      <trkpt lat="44.38709" lon="6.64223">
        <ele>1131.2</ele>
        <time>2016-04-20T11:02:04Z</time>
      </trkpt>
      <trkpt lat="44.38718" lon="6.64189">
        <ele>1130.9</ele>
        <time>2016-04-20T11:02:08Z</time>
      </trkpt>
      <trkpt lat="44.38726" lon="6.64156">
        <ele>1130.8</ele>
        <time>2016-04-20T11:02:12Z</time>
      </trkpt>
      <trkpt lat="44.38733" lon="6.64121">
        <ele>1130.9</ele>
        <time>2016-04-20T11:02:16Z</time>
      </trkpt>
      <trkpt lat="44.38741" lon="6.64087">
        <ele>1130.6</ele>
        <time>2016-04-20T11:02:20Z</time>
      </trkpt>
      <trkpt lat="44.38748" lon="6.64054">
        <ele>1129.8</ele>
        <time>2016-04-20T11:02:24Z</time>
      </trkpt>
      <trkpt lat="44.38755" lon="6.64022">
        <ele>1129.3</ele>
        <time>2016-04-20T11:02:28Z</time>
      </trkpt>
      <trkpt lat="44.38762" lon="6.63989">
        <ele>1128.9</ele>
        <time>2016-04-20T11:02:32Z</time>
      </trkpt>
      <trkpt lat="44.38769" lon="6.63957">
        <ele>1128.5</ele>
        <time>2016-04-20T11:02:36Z</time>
      </trkpt>
      <trkpt lat="44.38777" lon="6.63926">
        <ele>1128.1</ele>
        <time>2016-04-20T11:02:40Z</time>
      </trkpt>
      <trkpt lat="44.38784" lon="6.63894">
        <ele>1128.7</ele>
        <time>2016-04-20T11:02:44Z</time>
      </trkpt>
      <trkpt lat="44.38791" lon="6.63862">
        <ele>1129.7</ele>
        <time>2016-04-20T11:02:48Z</time>
      </trkpt>
      <trkpt lat="44.38798" lon="6.6383">
        <ele>1130.3</ele>
        <time>2016-04-20T11:02:52Z</time>
      </trkpt>
      <trkpt lat="44.38804" lon="6.63797">
        <ele>1129.1</ele>
        <time>2016-04-20T11:02:56Z</time>
      </trkpt>
      <trkpt lat="44.3881" lon="6.63764">
        <ele>1127.8</ele>
        <time>2016-04-20T11:03:00Z</time>
      </trkpt>
      <trkpt lat="44.38817" lon="6.63729">
        <ele>1127.9</ele>
        <time>2016-04-20T11:03:04Z</time>
      </trkpt>
      <trkpt lat="44.38822" lon="6.63694">
        <ele>1129.1</ele>
        <time>2016-04-20T11:03:08Z</time>
      </trkpt>
      <trkpt lat="44.38827" lon="6.63659">
        <ele>1130.3</ele>
        <time>2016-04-20T11:03:12Z</time>
      </trkpt>
      <trkpt lat="44.38832" lon="6.63626">
        <ele>1131.4</ele>
        <time>2016-04-20T11:03:16Z</time>
      </trkpt>
      <trkpt lat="44.38837" lon="6.63594">
        <ele>1132.7</ele>
        <time>2016-04-20T11:03:20Z</time>
      </trkpt>
      <trkpt lat="44.38842" lon="6.63564">
        <ele>1133.6</ele>
        <time>2016-04-20T11:03:24Z</time>
      </trkpt>
      <trkpt lat="44.38846" lon="6.63534">
        <ele>1134.1</ele>
        <time>2016-04-20T11:03:28Z</time>
      </trkpt>
      <trkpt lat="44.38849" lon="6.63507">
        <ele>1134.7</ele>
        <time>2016-04-20T11:03:32Z</time>
      </trkpt>
      <trkpt lat="44.38852" lon="6.63483">
        <ele>1134.9</ele>
        <time>2016-04-20T11:03:36Z</time>
      </trkpt>
      <trkpt lat="44.38856" lon="6.6346">
        <ele>1135.2</ele>
        <time>2016-04-20T11:03:40Z</time>
      </trkpt>
      <trkpt lat="44.38861" lon="6.63436">
        <ele>1135.6</ele>
        <time>2016-04-20T11:03:44Z</time>
      </trkpt>
      <trkpt lat="44.38865" lon="6.6341">
        <ele>1136</ele>
        <time>2016-04-20T11:03:48Z</time>
      </trkpt>
      <trkpt lat="44.38869" lon="6.63389">
        <ele>1136.5</ele>
        <time>2016-04-20T11:03:52Z</time>
      </trkpt>
      <trkpt lat="44.38872" lon="6.63367">
        <ele>1136.9</ele>
        <time>2016-04-20T11:03:56Z</time>
      </trkpt>
      <trkpt lat="44.38876" lon="6.63346">
        <ele>1137.4</ele>
        <time>2016-04-20T11:04:00Z</time>
      </trkpt>
      <trkpt lat="44.38887" lon="6.63328">
        <ele>1138.1</ele>
        <time>2016-04-20T11:04:04Z</time>
      </trkpt>
      <trkpt lat="44.38901" lon="6.63317">
        <ele>1138.9</ele>
        <time>2016-04-20T11:04:08Z</time>
      </trkpt>
      <trkpt lat="44.38915" lon="6.63305">
        <ele>1139.6</ele>
        <time>2016-04-20T11:04:12Z</time>
      </trkpt>
      <trkpt lat="44.38928" lon="6.63291">
        <ele>1140.3</ele>
        <time>2016-04-20T11:04:16Z</time>
      </trkpt>
      <trkpt lat="44.3894" lon="6.63275">
        <ele>1140.9</ele>
        <time>2016-04-20T11:04:20Z</time>
      </trkpt>
      <trkpt lat="44.38952" lon="6.63258">
        <ele>1141.3</ele>
        <time>2016-04-20T11:04:24Z</time>
      </trkpt>
      <trkpt lat="44.38964" lon="6.63243">
        <ele>1141.7</ele>
        <time>2016-04-20T11:04:28Z</time>
      </trkpt>
      <trkpt lat="44.38977" lon="6.63227">
        <ele>1142</ele>
        <time>2016-04-20T11:04:32Z</time>
      </trkpt>
      <trkpt lat="44.3899" lon="6.63212">
        <ele>1142.4</ele>
        <time>2016-04-20T11:04:36Z</time>
      </trkpt>
      <trkpt lat="44.39004" lon="6.63201">
        <ele>1143.2</ele>
        <time>2016-04-20T11:04:40Z</time>
      </trkpt>
      <trkpt lat="44.39019" lon="6.63191">
        <ele>1144</ele>
        <time>2016-04-20T11:04:44Z</time>
      </trkpt>
      <trkpt lat="44.39032" lon="6.63181">
        <ele>1144.5</ele>
        <time>2016-04-20T11:04:48Z</time>
      </trkpt>
      <trkpt lat="44.39045" lon="6.6317">
        <ele>1144.9</ele>
        <time>2016-04-20T11:04:52Z</time>
      </trkpt>
      <trkpt lat="44.39058" lon="6.63157">
        <ele>1145.2</ele>
        <time>2016-04-20T11:04:56Z</time>
      </trkpt>
      <trkpt lat="44.3907" lon="6.63142">
        <ele>1145.6</ele>
        <time>2016-04-20T11:05:00Z</time>
      </trkpt>
      <trkpt lat="44.39079" lon="6.63123">
        <ele>1145.6</ele>
        <time>2016-04-20T11:05:04Z</time>
      </trkpt>
      <trkpt lat="44.39085" lon="6.63103">
        <ele>1145.7</ele>
        <time>2016-04-20T11:05:08Z</time>
      </trkpt>
      <trkpt lat="44.39091" lon="6.63082">
        <ele>1146.1</ele>
        <time>2016-04-20T11:05:12Z</time>
      </trkpt>
      <trkpt lat="44.39098" lon="6.63062">
        <ele>1147</ele>
        <time>2016-04-20T11:05:16Z</time>
      </trkpt>
      <trkpt lat="44.39107" lon="6.63042">
        <ele>1148</ele>
        <time>2016-04-20T11:05:20Z</time>
      </trkpt>
      <trkpt lat="44.39118" lon="6.63024">
        <ele>1149.1</ele>
        <time>2016-04-20T11:05:24Z</time>
      </trkpt>
      <trkpt lat="44.3913" lon="6.63008">
        <ele>1150.2</ele>
        <time>2016-04-20T11:05:28Z</time>
      </trkpt>
      <trkpt lat="44.39144" lon="6.62992">
        <ele>1151.8</ele>
        <time>2016-04-20T11:05:32Z</time>
      </trkpt>
      <trkpt lat="44.39156" lon="6.62975">
        <ele>1153.5</ele>
        <time>2016-04-20T11:05:36Z</time>
      </trkpt>
      <trkpt lat="44.39168" lon="6.62959">
        <ele>1155.2</ele>
        <time>2016-04-20T11:05:40Z</time>
      </trkpt>
      <trkpt lat="44.3918" lon="6.62946">
        <ele>1157.4</ele>
        <time>2016-04-20T11:05:44Z</time>
      </trkpt>
      <trkpt lat="44.39195" lon="6.62934">
        <ele>1159.8</ele>
        <time>2016-04-20T11:05:48Z</time>
      </trkpt>
      <trkpt lat="44.39209" lon="6.6292">
        <ele>1161.6</ele>
        <time>2016-04-20T11:05:52Z</time>
      </trkpt>
      <trkpt lat="44.39218" lon="6.62899">
        <ele>1162.5</ele>
        <time>2016-04-20T11:05:56Z</time>
      </trkpt>
      <trkpt lat="44.39222" lon="6.62878">
        <ele>1162.7</ele>
        <time>2016-04-20T11:06:00Z</time>
      </trkpt>
      <trkpt lat="44.39222" lon="6.62854">
        <ele>1162.3</ele>
        <time>2016-04-20T11:06:04Z</time>
      </trkpt>
      <trkpt lat="44.39229" lon="6.62828">
        <ele>1162.7</ele>
        <time>2016-04-20T11:06:08Z</time>
      </trkpt>
      <trkpt lat="44.39239" lon="6.62805">
        <ele>1163.1</ele>
        <time>2016-04-20T11:06:12Z</time>
      </trkpt>
      <trkpt lat="44.39243" lon="6.6278">
        <ele>1163</ele>
        <time>2016-04-20T11:06:16Z</time>
      </trkpt>
      <trkpt lat="44.39242" lon="6.62753">
        <ele>1162.2</ele>
        <time>2016-04-20T11:06:20Z</time>
      </trkpt>
      <trkpt lat="44.39238" lon="6.6273">
        <ele>1161.5</ele>
        <time>2016-04-20T11:06:24Z</time>
      </trkpt>
      <trkpt lat="44.39234" lon="6.62704">
        <ele>1160.7</ele>
        <time>2016-04-20T11:06:28Z</time>
      </trkpt>
      <trkpt lat="44.3923" lon="6.62676">
        <ele>1160</ele>
        <time>2016-04-20T11:06:32Z</time>
      </trkpt>
      <trkpt lat="44.39224" lon="6.62648">
        <ele>1158.8</ele>
        <time>2016-04-20T11:06:36Z</time>
      </trkpt>
      <trkpt lat="44.39214" lon="6.62607">
        <ele>1157</ele>
        <time>2016-04-20T11:06:40Z</time>
      </trkpt>
      <trkpt lat="44.39202" lon="6.62562">
        <ele>1154.5</ele>
        <time>2016-04-20T11:06:44Z</time>
      </trkpt>
      <trkpt lat="44.39188" lon="6.62513">
        <ele>1150.5</ele>
        <time>2016-04-20T11:06:48Z</time>
      </trkpt>
      <trkpt lat="44.39174" lon="6.6246">
        <ele>1147</ele>
        <time>2016-04-20T11:06:52Z</time>
      </trkpt>
      <trkpt lat="44.39166" lon="6.62404">
        <ele>1144.5</ele>
        <time>2016-04-20T11:06:56Z</time>
      </trkpt>
      <trkpt lat="44.39158" lon="6.62349">
        <ele>1141.7</ele>
        <time>2016-04-20T11:07:00Z</time>
      </trkpt>
      <trkpt lat="44.39144" lon="6.62289">
        <ele>1137.7</ele>
        <time>2016-04-20T11:07:04Z</time>
      </trkpt>
      <trkpt lat="44.39136" lon="6.62224">
        <ele>1134.7</ele>
        <time>2016-04-20T11:07:08Z</time>
      </trkpt>
      <trkpt lat="44.39143" lon="6.62161">
        <ele>1134.5</ele>
        <time>2016-04-20T11:07:12Z</time>
      </trkpt>
      <trkpt lat="44.39155" lon="6.62112">
        <ele>1135.1</ele>
        <time>2016-04-20T11:07:16Z</time>
      </trkpt>
      <trkpt lat="44.39163" lon="6.62077">
        <ele>1135.8</ele>
        <time>2016-04-20T11:07:20Z</time>
      </trkpt>
      <trkpt lat="44.39166" lon="6.62051">
        <ele>1136.3</ele>
        <time>2016-04-20T11:07:24Z</time>
      </trkpt>
      <trkpt lat="44.39166" lon="6.62026">
        <ele>1136.6</ele>
        <time>2016-04-20T11:07:28Z</time>
      </trkpt>
      <trkpt lat="44.39162" lon="6.62">
        <ele>1136.6</ele>
        <time>2016-04-20T11:07:32Z</time>
      </trkpt>
      <trkpt lat="44.39158" lon="6.61974">
        <ele>1135.7</ele>
        <time>2016-04-20T11:07:36Z</time>
      </trkpt>
      <trkpt lat="44.39153" lon="6.61947">
        <ele>1134.8</ele>
        <time>2016-04-20T11:07:40Z</time>
      </trkpt>
      <trkpt lat="44.3915" lon="6.61919">
        <ele>1134.3</ele>
        <time>2016-04-20T11:07:44Z</time>
      </trkpt>
      <trkpt lat="44.3915" lon="6.61889">
        <ele>1134.2</ele>
        <time>2016-04-20T11:07:48Z</time>
      </trkpt>
      <trkpt lat="44.39149" lon="6.6186">
        <ele>1134.1</ele>
        <time>2016-04-20T11:07:52Z</time>
      </trkpt>
      <trkpt lat="44.39146" lon="6.61831">
        <ele>1134.1</ele>
        <time>2016-04-20T11:07:56Z</time>
      </trkpt>
      <trkpt lat="44.39139" lon="6.61806">
        <ele>1134.9</ele>
        <time>2016-04-20T11:08:00Z</time>
      </trkpt>
      <trkpt lat="44.39132" lon="6.61786">
        <ele>1135.5</ele>
        <time>2016-04-20T11:08:04Z</time>
      </trkpt>
      <trkpt lat="44.39126" lon="6.61767">
        <ele>1136.2</ele>
        <time>2016-04-20T11:08:08Z</time>
      </trkpt>
      <trkpt lat="44.39121" lon="6.61747">
        <ele>1137.1</ele>
        <time>2016-04-20T11:08:12Z</time>
      </trkpt>
      <trkpt lat="44.39117" lon="6.61726">
        <ele>1138.5</ele>
        <time>2016-04-20T11:08:16Z</time>
      </trkpt>
      <trkpt lat="44.39116" lon="6.61706">
        <ele>1139.9</ele>
        <time>2016-04-20T11:08:20Z</time>
      </trkpt>
      <trkpt lat="44.39117" lon="6.61685">
        <ele>1141.3</ele>
        <time>2016-04-20T11:08:24Z</time>
      </trkpt>
      <trkpt lat="44.39119" lon="6.61665">
        <ele>1142.9</ele>
        <time>2016-04-20T11:08:28Z</time>
      </trkpt>
      <trkpt lat="44.39121" lon="6.61644">
        <ele>1144.1</ele>
        <time>2016-04-20T11:08:32Z</time>
      </trkpt>
      <trkpt lat="44.39124" lon="6.61626">
        <ele>1145.4</ele>
        <time>2016-04-20T11:08:36Z</time>
      </trkpt>
      <trkpt lat="44.39129" lon="6.6161">
        <ele>1146.7</ele>
        <time>2016-04-20T11:08:40Z</time>
      </trkpt>
      <trkpt lat="44.39135" lon="6.61594">
        <ele>1148</ele>
        <time>2016-04-20T11:08:44Z</time>
      </trkpt>
      <trkpt lat="44.3914" lon="6.61579">
        <ele>1149.3</ele>
        <time>2016-04-20T11:08:48Z</time>
      </trkpt>
      <trkpt lat="44.39147" lon="6.61567">
        <ele>1150.2</ele>
        <time>2016-04-20T11:08:52Z</time>
      </trkpt>
      <trkpt lat="44.39153" lon="6.61554">
        <ele>1151.1</ele>
        <time>2016-04-20T11:08:56Z</time>
      </trkpt>
      <trkpt lat="44.39157" lon="6.6154">
        <ele>1151.9</ele>
        <time>2016-04-20T11:09:00Z</time>
      </trkpt>
      <trkpt lat="44.39161" lon="6.61526">
        <ele>1152.7</ele>
        <time>2016-04-20T11:09:04Z</time>
      </trkpt>
      <trkpt lat="44.39165" lon="6.61511">
        <ele>1153.5</ele>
        <time>2016-04-20T11:09:08Z</time>
      </trkpt>
      <trkpt lat="44.39169" lon="6.61496">
        <ele>1154.4</ele>
        <time>2016-04-20T11:09:12Z</time>
      </trkpt>
      <trkpt lat="44.39174" lon="6.6148">
        <ele>1155.5</ele>
        <time>2016-04-20T11:09:16Z</time>
      </trkpt>
      <trkpt lat="44.3918" lon="6.61465">
        <ele>1156.6</ele>
        <time>2016-04-20T11:09:20Z</time>
      </trkpt>
      <trkpt lat="44.39184" lon="6.61452">
        <ele>1157.5</ele>
        <time>2016-04-20T11:09:24Z</time>
      </trkpt>
      <trkpt lat="44.39188" lon="6.61436">
        <ele>1158.6</ele>
        <time>2016-04-20T11:09:28Z</time>
      </trkpt>
      <trkpt lat="44.39192" lon="6.61418">
        <ele>1159.7</ele>
        <time>2016-04-20T11:09:32Z</time>
      </trkpt>
      <trkpt lat="44.39197" lon="6.61403">
        <ele>1160.8</ele>
        <time>2016-04-20T11:09:36Z</time>
      </trkpt>
      <trkpt lat="44.39203" lon="6.61387">
        <ele>1162</ele>
        <time>2016-04-20T11:09:40Z</time>
      </trkpt>
      <trkpt lat="44.3921" lon="6.61373">
        <ele>1163.2</ele>
        <time>2016-04-20T11:09:44Z</time>
      </trkpt>
      <trkpt lat="44.39217" lon="6.61362">
        <ele>1164.3</ele>
        <time>2016-04-20T11:09:48Z</time>
      </trkpt>
      <trkpt lat="44.39226" lon="6.61351">
        <ele>1165.4</ele>
        <time>2016-04-20T11:09:52Z</time>
      </trkpt>
      <trkpt lat="44.39233" lon="6.61336">
        <ele>1166.5</ele>
        <time>2016-04-20T11:09:56Z</time>
      </trkpt>
      <trkpt lat="44.3924" lon="6.61321">
        <ele>1167.8</ele>
        <time>2016-04-20T11:10:00Z</time>
      </trkpt>
      <trkpt lat="44.39246" lon="6.61305">
        <ele>1169</ele>
        <time>2016-04-20T11:10:04Z</time>
      </trkpt>
      <trkpt lat="44.39252" lon="6.61288">
        <ele>1170.4</ele>
        <time>2016-04-20T11:10:08Z</time>
      </trkpt>
      <trkpt lat="44.39258" lon="6.61272">
        <ele>1171.9</ele>
        <time>2016-04-20T11:10:12Z</time>
      </trkpt>
      <trkpt lat="44.39265" lon="6.61258">
        <ele>1173.2</ele>
        <time>2016-04-20T11:10:16Z</time>
      </trkpt>
      <trkpt lat="44.39271" lon="6.61244">
        <ele>1174.3</ele>
        <time>2016-04-20T11:10:20Z</time>
      </trkpt>
      <trkpt lat="44.39277" lon="6.61229">
        <ele>1175.4</ele>
        <time>2016-04-20T11:10:24Z</time>
      </trkpt>
      <trkpt lat="44.39286" lon="6.61215">
        <ele>1176.9</ele>
        <time>2016-04-20T11:10:28Z</time>
      </trkpt>
      <trkpt lat="44.39291" lon="6.61202">
        <ele>1178</ele>
        <time>2016-04-20T11:10:32Z</time>
      </trkpt>
      <trkpt lat="44.39297" lon="6.61189">
        <ele>1179.1</ele>
        <time>2016-04-20T11:10:36Z</time>
      </trkpt>
      <trkpt lat="44.39303" lon="6.61176">
        <ele>1180.3</ele>
        <time>2016-04-20T11:10:40Z</time>
      </trkpt>
      <trkpt lat="44.39309" lon="6.61165">
        <ele>1181.4</ele>
        <time>2016-04-20T11:10:44Z</time>
      </trkpt>
      <trkpt lat="44.39315" lon="6.61152">
        <ele>1182.3</ele>
        <time>2016-04-20T11:10:48Z</time>
      </trkpt>
      <trkpt lat="44.3932" lon="6.61139">
        <ele>1183.1</ele>
        <time>2016-04-20T11:10:52Z</time>
      </trkpt>
      <trkpt lat="44.39325" lon="6.61127">
        <ele>1183.8</ele>
        <time>2016-04-20T11:10:56Z</time>
      </trkpt>
      <trkpt lat="44.39332" lon="6.61116">
        <ele>1184.5</ele>
        <time>2016-04-20T11:11:00Z</time>
      </trkpt>
      <trkpt lat="44.39341" lon="6.61108">
        <ele>1185.4</ele>
        <time>2016-04-20T11:11:04Z</time>
      </trkpt>
      <trkpt lat="44.3935" lon="6.611">
        <ele>1186.2</ele>
        <time>2016-04-20T11:11:08Z</time>
      </trkpt>
      <trkpt lat="44.3936" lon="6.61093">
        <ele>1187</ele>
        <time>2016-04-20T11:11:12Z</time>
      </trkpt>
      <trkpt lat="44.39369" lon="6.61086">
        <ele>1187.6</ele>
        <time>2016-04-20T11:11:16Z</time>
      </trkpt>
      <trkpt lat="44.39376" lon="6.61078">
        <ele>1188.1</ele>
        <time>2016-04-20T11:11:20Z</time>
      </trkpt>
      <trkpt lat="44.39387" lon="6.6107">
        <ele>1188.9</ele>
        <time>2016-04-20T11:11:24Z</time>
      </trkpt>
      <trkpt lat="44.39396" lon="6.61061">
        <ele>1189.6</ele>
        <time>2016-04-20T11:11:28Z</time>
      </trkpt>
      <trkpt lat="44.39404" lon="6.61052">
        <ele>1190.2</ele>
        <time>2016-04-20T11:11:32Z</time>
      </trkpt>
      <trkpt lat="44.39414" lon="6.61048">
        <ele>1190.8</ele>
        <time>2016-04-20T11:11:36Z</time>
      </trkpt>
      <trkpt lat="44.39424" lon="6.61047">
        <ele>1191.6</ele>
        <time>2016-04-20T11:11:40Z</time>
      </trkpt>
      <trkpt lat="44.39432" lon="6.61048">
        <ele>1192.3</ele>
        <time>2016-04-20T11:11:44Z</time>
      </trkpt>
      <trkpt lat="44.39441" lon="6.61051">
        <ele>1193.2</ele>
        <time>2016-04-20T11:11:48Z</time>
      </trkpt>
      <trkpt lat="44.39451" lon="6.61056">
        <ele>1194</ele>
        <time>2016-04-20T11:11:52Z</time>
      </trkpt>
      <trkpt lat="44.3946" lon="6.61063">
        <ele>1194.9</ele>
        <time>2016-04-20T11:11:56Z</time>
      </trkpt>
      <trkpt lat="44.3947" lon="6.61071">
        <ele>1195.9</ele>
        <time>2016-04-20T11:12:00Z</time>
      </trkpt>
      <trkpt lat="44.39479" lon="6.61079">
        <ele>1196.9</ele>
        <time>2016-04-20T11:12:04Z</time>
      </trkpt>
      <trkpt lat="44.39487" lon="6.61086">
        <ele>1198</ele>
        <time>2016-04-20T11:12:08Z</time>
      </trkpt>
      <trkpt lat="44.39496" lon="6.61093">
        <ele>1199.2</ele>
        <time>2016-04-20T11:12:12Z</time>
      </trkpt>
      <trkpt lat="44.39504" lon="6.61102">
        <ele>1200.7</ele>
        <time>2016-04-20T11:12:16Z</time>
      </trkpt>
      <trkpt lat="44.39512" lon="6.61111">
        <ele>1202.2</ele>
        <time>2016-04-20T11:12:20Z</time>
      </trkpt>
      <trkpt lat="44.3952" lon="6.61119">
        <ele>1203.5</ele>
        <time>2016-04-20T11:12:24Z</time>
      </trkpt>
      <trkpt lat="44.39527" lon="6.61126">
        <ele>1204.7</ele>
        <time>2016-04-20T11:12:28Z</time>
      </trkpt>
      <trkpt lat="44.39535" lon="6.61132">
        <ele>1205.9</ele>
        <time>2016-04-20T11:12:32Z</time>
      </trkpt>
      <trkpt lat="44.39543" lon="6.61136">
        <ele>1207</ele>
        <time>2016-04-20T11:12:36Z</time>
      </trkpt>
      <trkpt lat="44.39553" lon="6.61138">
        <ele>1208</ele>
        <time>2016-04-20T11:12:40Z</time>
      </trkpt>
      <trkpt lat="44.39563" lon="6.61136">
        <ele>1208.8</ele>
        <time>2016-04-20T11:12:44Z</time>
      </trkpt>
      <trkpt lat="44.39571" lon="6.6113">
        <ele>1209.2</ele>
        <time>2016-04-20T11:12:48Z</time>
      </trkpt>
      <trkpt lat="44.39578" lon="6.61121">
        <ele>1209.2</ele>
        <time>2016-04-20T11:12:52Z</time>
      </trkpt>
      <trkpt lat="44.39584" lon="6.61111">
        <ele>1209.1</ele>
        <time>2016-04-20T11:12:56Z</time>
      </trkpt>
      <trkpt lat="44.39591" lon="6.611">
        <ele>1209.1</ele>
        <time>2016-04-20T11:13:00Z</time>
      </trkpt>
      <trkpt lat="44.39601" lon="6.61089">
        <ele>1209.6</ele>
        <time>2016-04-20T11:13:04Z</time>
      </trkpt>
      <trkpt lat="44.39614" lon="6.61084">
        <ele>1211.1</ele>
        <time>2016-04-20T11:13:08Z</time>
      </trkpt>
      <trkpt lat="44.39626" lon="6.61091">
        <ele>1212.7</ele>
        <time>2016-04-20T11:13:12Z</time>
      </trkpt>
      <trkpt lat="44.39635" lon="6.61101">
        <ele>1213.7</ele>
        <time>2016-04-20T11:13:16Z</time>
      </trkpt>
      <trkpt lat="44.39644" lon="6.61111">
        <ele>1214.4</ele>
        <time>2016-04-20T11:13:20Z</time>
      </trkpt>
      <trkpt lat="44.39654" lon="6.61122">
        <ele>1214.8</ele>
        <time>2016-04-20T11:13:24Z</time>
      </trkpt>
      <trkpt lat="44.39663" lon="6.61131">
        <ele>1214.9</ele>
        <time>2016-04-20T11:13:28Z</time>
      </trkpt>
      <trkpt lat="44.39674" lon="6.61141">
        <ele>1215.8</ele>
        <time>2016-04-20T11:13:32Z</time>
      </trkpt>
      <trkpt lat="44.39685" lon="6.61146">
        <ele>1217.5</ele>
        <time>2016-04-20T11:13:36Z</time>
      </trkpt>
      <trkpt lat="44.39697" lon="6.61152">
        <ele>1219</ele>
        <time>2016-04-20T11:13:40Z</time>
      </trkpt>
      <trkpt lat="44.39708" lon="6.61157">
        <ele>1220.3</ele>
        <time>2016-04-20T11:13:44Z</time>
      </trkpt>
      <trkpt lat="44.39718" lon="6.61165">
        <ele>1221.1</ele>
        <time>2016-04-20T11:13:48Z</time>
      </trkpt>
      <trkpt lat="44.39727" lon="6.61174">
        <ele>1222.5</ele>
        <time>2016-04-20T11:13:52Z</time>
      </trkpt>
      <trkpt lat="44.39736" lon="6.61182">
        <ele>1223.8</ele>
        <time>2016-04-20T11:13:56Z</time>
      </trkpt>
      <trkpt lat="44.39743" lon="6.6119">
        <ele>1224.6</ele>
        <time>2016-04-20T11:14:00Z</time>
      </trkpt>
      <trkpt lat="44.39751" lon="6.61197">
        <ele>1225.5</ele>
        <time>2016-04-20T11:14:04Z</time>
      </trkpt>
      <trkpt lat="44.39759" lon="6.61204">
        <ele>1226.5</ele>
        <time>2016-04-20T11:14:08Z</time>
      </trkpt>
      <trkpt lat="44.3977" lon="6.6121">
        <ele>1227.8</ele>
        <time>2016-04-20T11:14:12Z</time>
      </trkpt>
      <trkpt lat="44.3978" lon="6.61213">
        <ele>1229.1</ele>
        <time>2016-04-20T11:14:16Z</time>
      </trkpt>
      <trkpt lat="44.3979" lon="6.61216">
        <ele>1230.3</ele>
        <time>2016-04-20T11:14:20Z</time>
      </trkpt>
      <trkpt lat="44.39801" lon="6.61219">
        <ele>1231.6</ele>
        <time>2016-04-20T11:14:24Z</time>
      </trkpt>
      <trkpt lat="44.39811" lon="6.61223">
        <ele>1232.7</ele>
        <time>2016-04-20T11:14:28Z</time>
      </trkpt>
      <trkpt lat="44.39821" lon="6.61226">
        <ele>1233.6</ele>
        <time>2016-04-20T11:14:32Z</time>
      </trkpt>
      <trkpt lat="44.3983" lon="6.6123">
        <ele>1234.6</ele>
        <time>2016-04-20T11:14:36Z</time>
      </trkpt>
      <trkpt lat="44.3984" lon="6.61233">
        <ele>1235.4</ele>
        <time>2016-04-20T11:14:40Z</time>
      </trkpt>
      <trkpt lat="44.39849" lon="6.61237">
        <ele>1236.1</ele>
        <time>2016-04-20T11:14:44Z</time>
      </trkpt>
      <trkpt lat="44.39857" lon="6.61241">
        <ele>1236.6</ele>
        <time>2016-04-20T11:14:48Z</time>
      </trkpt>
      <trkpt lat="44.39865" lon="6.61245">
        <ele>1237</ele>
        <time>2016-04-20T11:14:52Z</time>
      </trkpt>
      <trkpt lat="44.39872" lon="6.6125">
        <ele>1237.2</ele>
        <time>2016-04-20T11:14:56Z</time>
      </trkpt>
      <trkpt lat="44.39879" lon="6.61254">
        <ele>1237.9</ele>
        <time>2016-04-20T11:15:00Z</time>
      </trkpt>
      <trkpt lat="44.39886" lon="6.61258">
        <ele>1238.6</ele>
        <time>2016-04-20T11:15:04Z</time>
      </trkpt>
      <trkpt lat="44.39893" lon="6.61261">
        <ele>1239.2</ele>
        <time>2016-04-20T11:15:08Z</time>
      </trkpt>
      <trkpt lat="44.39901" lon="6.61267">
        <ele>1239.7</ele>
        <time>2016-04-20T11:15:12Z</time>
      </trkpt>
      <trkpt lat="44.39909" lon="6.6127">
        <ele>1240.2</ele>
        <time>2016-04-20T11:15:16Z</time>
      </trkpt>
      <trkpt lat="44.39918" lon="6.61272">
        <ele>1240.9</ele>
        <time>2016-04-20T11:15:20Z</time>
      </trkpt>
      <trkpt lat="44.39927" lon="6.61274">
        <ele>1242.1</ele>
        <time>2016-04-20T11:15:24Z</time>
      </trkpt>
      <trkpt lat="44.39938" lon="6.6128">
        <ele>1243.2</ele>
        <time>2016-04-20T11:15:28Z</time>
      </trkpt>
      <trkpt lat="44.39947" lon="6.61281">
        <ele>1244.3</ele>
        <time>2016-04-20T11:15:32Z</time>
      </trkpt>
      <trkpt lat="44.39956" lon="6.61282">
        <ele>1245.6</ele>
        <time>2016-04-20T11:15:36Z</time>
      </trkpt>
      <trkpt lat="44.39965" lon="6.61286">
        <ele>1246.5</ele>
        <time>2016-04-20T11:15:40Z</time>
      </trkpt>
      <trkpt lat="44.39979" lon="6.61292">
        <ele>1247.7</ele>
        <time>2016-04-20T11:15:47Z</time>
      </trkpt>
      <trkpt lat="44.39989" lon="6.61301">
        <ele>1247.9</ele>
        <time>2016-04-20T11:16:30Z</time>
      </trkpt>
      <trkpt lat="44.40001" lon="6.61302">
        <ele>1249.2</ele>
        <time>2016-04-20T11:16:38Z</time>
      </trkpt>
      <trkpt lat="44.4001" lon="6.61306">
        <ele>1249.6</ele>
        <time>2016-04-20T11:16:42Z</time>
      </trkpt>
      <trkpt lat="44.4002" lon="6.61309">
        <ele>1250.1</ele>
        <time>2016-04-20T11:16:46Z</time>
      </trkpt>
      <trkpt lat="44.40032" lon="6.61311">
        <ele>1251</ele>
        <time>2016-04-20T11:16:50Z</time>
      </trkpt>
      <trkpt lat="44.40043" lon="6.61315">
        <ele>1251.3</ele>
        <time>2016-04-20T11:16:54Z</time>
      </trkpt>
      <trkpt lat="44.40044" lon="6.6133">
        <ele>1249.2</ele>
        <time>2016-04-20T11:16:58Z</time>
      </trkpt>
      <trkpt lat="44.40041" lon="6.61342">
        <ele>1249.1</ele>
        <time>2016-04-20T11:17:02Z</time>
      </trkpt>
      <trkpt lat="44.40034" lon="6.61353">
        <ele>1249.6</ele>
        <time>2016-04-20T11:17:06Z</time>
      </trkpt>
      <trkpt lat="44.40028" lon="6.61366">
        <ele>1250.4</ele>
        <time>2016-04-20T11:17:10Z</time>
      </trkpt>
      <trkpt lat="44.40022" lon="6.61375">
        <ele>1250.9</ele>
        <time>2016-04-20T11:17:14Z</time>
      </trkpt>
      <trkpt lat="44.40011" lon="6.61379">
        <ele>1250.9</ele>
        <time>2016-04-20T11:17:18Z</time>
      </trkpt>
      <trkpt lat="44.39995" lon="6.61376">
        <ele>1250.1</ele>
        <time>2016-04-20T11:17:22Z</time>
      </trkpt>
      <trkpt lat="44.3998" lon="6.61373">
        <ele>1249.5</ele>
        <time>2016-04-20T11:17:26Z</time>
      </trkpt>
      <trkpt lat="44.39957" lon="6.61368">
        <ele>1248</ele>
        <time>2016-04-20T11:17:30Z</time>
      </trkpt>
      <trkpt lat="44.39937" lon="6.61364">
        <ele>1246.6</ele>
        <time>2016-04-20T11:17:34Z</time>
      </trkpt>
      <trkpt lat="44.39923" lon="6.6136">
        <ele>1245</ele>
        <time>2016-04-20T11:17:38Z</time>
      </trkpt>
      <trkpt lat="44.39911" lon="6.61358">
        <ele>1244.1</ele>
        <time>2016-04-20T11:17:42Z</time>
      </trkpt>
      <trkpt lat="44.39895" lon="6.61356">
        <ele>1243.4</ele>
        <time>2016-04-20T11:17:46Z</time>
      </trkpt>
      <trkpt lat="44.39875" lon="6.61351">
        <ele>1242</ele>
        <time>2016-04-20T11:17:50Z</time>
      </trkpt>
      <trkpt lat="44.39853" lon="6.61345">
        <ele>1240.7</ele>
        <time>2016-04-20T11:17:54Z</time>
      </trkpt>
      <trkpt lat="44.3983" lon="6.6134">
        <ele>1239.6</ele>
        <time>2016-04-20T11:17:58Z</time>
      </trkpt>
      <trkpt lat="44.3982" lon="6.61347">
        <ele>1241.1</ele>
        <time>2016-04-20T11:18:02Z</time>
      </trkpt>
      <trkpt lat="44.39819" lon="6.61354">
        <ele>1242.7</ele>
        <time>2016-04-20T11:18:06Z</time>
      </trkpt>
      <trkpt lat="44.39818" lon="6.61359">
        <ele>1243.9</ele>
        <time>2016-04-20T11:18:10Z</time>
      </trkpt>
      <trkpt lat="44.39817" lon="6.61364">
        <ele>1245.2</ele>
        <time>2016-04-20T11:18:14Z</time>
      </trkpt>
      <trkpt lat="44.39817" lon="6.61371">
        <ele>1246.9</ele>
        <time>2016-04-20T11:18:18Z</time>
      </trkpt>
      <trkpt lat="44.39816" lon="6.61376">
        <ele>1247.9</ele>
        <time>2016-04-20T11:18:22Z</time>
      </trkpt>
      <trkpt lat="44.39817" lon="6.61385">
        <ele>1250.2</ele>
        <time>2016-04-20T11:18:26Z</time>
      </trkpt>
      <trkpt lat="44.39818" lon="6.61395">
        <ele>1252.5</ele>
        <time>2016-04-20T11:18:30Z</time>
      </trkpt>
      <trkpt lat="44.39816" lon="6.61404">
        <ele>1254.7</ele>
        <time>2016-04-20T11:18:34Z</time>
      </trkpt>
      <trkpt lat="44.39815" lon="6.6141">
        <ele>1256.4</ele>
        <time>2016-04-20T11:18:38Z</time>
      </trkpt>
      <trkpt lat="44.39812" lon="6.61414">
        <ele>1257.4</ele>
        <time>2016-04-20T11:18:42Z</time>
      </trkpt>
      <trkpt lat="44.39803" lon="6.61407">
        <ele>1256</ele>
        <time>2016-04-20T11:18:54Z</time>
      </trkpt>
      <trkpt lat="44.398" lon="6.61403">
        <ele>1255.1</ele>
        <time>2016-04-20T11:18:58Z</time>
      </trkpt>
      <trkpt lat="44.39798" lon="6.61398">
        <ele>1253.9</ele>
        <time>2016-04-20T11:19:02Z</time>
      </trkpt>
      <trkpt lat="44.39796" lon="6.61394">
        <ele>1253.1</ele>
        <time>2016-04-20T11:19:06Z</time>
      </trkpt>
      <trkpt lat="44.39793" lon="6.61391">
        <ele>1252.3</ele>
        <time>2016-04-20T11:19:10Z</time>
      </trkpt>
      <trkpt lat="44.3979" lon="6.61388">
        <ele>1251.6</ele>
        <time>2016-04-20T11:19:14Z</time>
      </trkpt>
      <trkpt lat="44.39786" lon="6.61385">
        <ele>1251</ele>
        <time>2016-04-20T11:19:18Z</time>
      </trkpt>
      <trkpt lat="44.39783" lon="6.61383">
        <ele>1250.5</ele>
        <time>2016-04-20T11:19:22Z</time>
      </trkpt>
      <trkpt lat="44.3978" lon="6.6138">
        <ele>1249.9</ele>
        <time>2016-04-20T11:19:26Z</time>
      </trkpt>
      <trkpt lat="44.39746" lon="6.61386">
        <ele>1252.7</ele>
        <time>2016-04-20T11:20:22Z</time>
      </trkpt>
      <trkpt lat="44.39749" lon="6.61464">
        <ele>1271.9</ele>
        <time>2016-04-20T11:21:58Z</time>
      </trkpt>
      <trkpt lat="44.39743" lon="6.61489">
        <ele>1278</ele>
        <time>2016-04-20T11:22:26Z</time>
      </trkpt>
      <trkpt lat="44.39744" lon="6.61494">
        <ele>1278.9</ele>
        <time>2016-04-20T11:22:30Z</time>
      </trkpt>
      <trkpt lat="44.39744" lon="6.61499">
        <ele>1280.1</ele>
        <time>2016-04-20T11:22:34Z</time>
      </trkpt>
      <trkpt lat="44.39744" lon="6.61503">
        <ele>1281.1</ele>
        <time>2016-04-20T11:22:38Z</time>
      </trkpt>
      <trkpt lat="44.39744" lon="6.61506">
        <ele>1282</ele>
        <time>2016-04-20T11:22:42Z</time>
      </trkpt>
      <trkpt lat="44.39744" lon="6.61511">
        <ele>1283.2</ele>
        <time>2016-04-20T11:22:46Z</time>
      </trkpt>
      <trkpt lat="44.39746" lon="6.61551">
        <ele>1294</ele>
        <time>2016-04-20T11:23:30Z</time>
      </trkpt>
      <trkpt lat="44.39838" lon="6.61728">
        <ele>1350.5</ele>
        <time>2016-04-20T11:29:26Z</time>
      </trkpt>
      <trkpt lat="44.39841" lon="6.61726">
        <ele>1350.8</ele>
        <time>2016-04-20T11:29:30Z</time>
      </trkpt>
      <trkpt lat="44.39845" lon="6.61725">
        <ele>1351.5</ele>
        <time>2016-04-20T11:29:34Z</time>
      </trkpt>
      <trkpt lat="44.39849" lon="6.61725">
        <ele>1352.5</ele>
        <time>2016-04-20T11:29:38Z</time>
      </trkpt>
      <trkpt lat="44.39853" lon="6.61725">
        <ele>1353.7</ele>
        <time>2016-04-20T11:29:42Z</time>
      </trkpt>
      <trkpt lat="44.39857" lon="6.61727">
        <ele>1355.1</ele>
        <time>2016-04-20T11:29:46Z</time>
      </trkpt>
      <trkpt lat="44.39899" lon="6.61755">
        <ele>1372.1</ele>
        <time>2016-04-20T11:30:54Z</time>
      </trkpt>
      <trkpt lat="44.39919" lon="6.61767">
        <ele>1377.9</ele>
        <time>2016-04-20T11:31:30Z</time>
      </trkpt>
      <trkpt lat="44.39934" lon="6.61798">
        <ele>1380.6</ele>
        <time>2016-04-20T11:32:06Z</time>
      </trkpt>
      <trkpt lat="44.39933" lon="6.61804">
        <ele>1381.6</ele>
        <time>2016-04-20T11:32:10Z</time>
      </trkpt>
      <trkpt lat="44.39932" lon="6.61809">
        <ele>1382.5</ele>
        <time>2016-04-20T11:32:14Z</time>
      </trkpt>
      <trkpt lat="44.39931" lon="6.61816">
        <ele>1383.6</ele>
        <time>2016-04-20T11:32:18Z</time>
      </trkpt>
      <trkpt lat="44.3993" lon="6.61821">
        <ele>1384.4</ele>
        <time>2016-04-20T11:32:22Z</time>
      </trkpt>
      <trkpt lat="44.39931" lon="6.61827">
        <ele>1385.3</ele>
        <time>2016-04-20T11:32:26Z</time>
      </trkpt>
      <trkpt lat="44.39934" lon="6.6183">
        <ele>1385.5</ele>
        <time>2016-04-20T11:32:30Z</time>
      </trkpt>
      <trkpt lat="44.39938" lon="6.61833">
        <ele>1385.7</ele>
        <time>2016-04-20T11:32:34Z</time>
      </trkpt>
      <trkpt lat="44.39943" lon="6.61839">
        <ele>1386.2</ele>
        <time>2016-04-20T11:32:38Z</time>
      </trkpt>
      <trkpt lat="44.39946" lon="6.61844">
        <ele>1386.6</ele>
        <time>2016-04-20T11:32:42Z</time>
      </trkpt>
      <trkpt lat="44.39949" lon="6.61849">
        <ele>1387.2</ele>
        <time>2016-04-20T11:32:46Z</time>
      </trkpt>
      <trkpt lat="44.39952" lon="6.61854">
        <ele>1387.9</ele>
        <time>2016-04-20T11:32:50Z</time>
      </trkpt>
      <trkpt lat="44.39954" lon="6.6186">
        <ele>1388.6</ele>
        <time>2016-04-20T11:32:54Z</time>
      </trkpt>
      <trkpt lat="44.39957" lon="6.61865">
        <ele>1389.5</ele>
        <time>2016-04-20T11:32:58Z</time>
      </trkpt>
      <trkpt lat="44.39967" lon="6.61877">
        <ele>1391.6</ele>
        <time>2016-04-20T11:33:14Z</time>
      </trkpt>
      <trkpt lat="44.39972" lon="6.61878">
        <ele>1392</ele>
        <time>2016-04-20T11:33:18Z</time>
      </trkpt>
      <trkpt lat="44.39975" lon="6.61877">
        <ele>1392.1</ele>
        <time>2016-04-20T11:33:22Z</time>
      </trkpt>
      <trkpt lat="44.39979" lon="6.61877">
        <ele>1392.2</ele>
        <time>2016-04-20T11:33:26Z</time>
      </trkpt>
      <trkpt lat="44.39984" lon="6.6188">
        <ele>1392.9</ele>
        <time>2016-04-20T11:33:30Z</time>
      </trkpt>
      <trkpt lat="44.39988" lon="6.61883">
        <ele>1393.8</ele>
        <time>2016-04-20T11:33:34Z</time>
      </trkpt>
      <trkpt lat="44.39992" lon="6.61887">
        <ele>1395</ele>
        <time>2016-04-20T11:33:38Z</time>
      </trkpt>
      <trkpt lat="44.39996" lon="6.61894">
        <ele>1396.9</ele>
        <time>2016-04-20T11:33:42Z</time>
      </trkpt>
      <trkpt lat="44.39999" lon="6.61898">
        <ele>1398.3</ele>
        <time>2016-04-20T11:33:46Z</time>
      </trkpt>
      <trkpt lat="44.40001" lon="6.61905">
        <ele>1400.3</ele>
        <time>2016-04-20T11:33:50Z</time>
      </trkpt>
      <trkpt lat="44.40003" lon="6.61912">
        <ele>1402</ele>
        <time>2016-04-20T11:33:54Z</time>
      </trkpt>
      <trkpt lat="44.40003" lon="6.61918">
        <ele>1403.4</ele>
        <time>2016-04-20T11:33:58Z</time>
      </trkpt>
      <trkpt lat="44.40003" lon="6.61922">
        <ele>1404</ele>
        <time>2016-04-20T11:34:02Z</time>
      </trkpt>
      <trkpt lat="44.40004" lon="6.61927">
        <ele>1404.7</ele>
        <time>2016-04-20T11:34:06Z</time>
      </trkpt>
      <trkpt lat="44.40006" lon="6.61932">
        <ele>1405.6</ele>
        <time>2016-04-20T11:34:10Z</time>
      </trkpt>
      <trkpt lat="44.40008" lon="6.61939">
        <ele>1406.9</ele>
        <time>2016-04-20T11:34:14Z</time>
      </trkpt>
      <trkpt lat="44.4001" lon="6.61944">
        <ele>1407.7</ele>
        <time>2016-04-20T11:34:18Z</time>
      </trkpt>
      <trkpt lat="44.40012" lon="6.6195">
        <ele>1408.9</ele>
        <time>2016-04-20T11:34:22Z</time>
      </trkpt>
      <trkpt lat="44.40014" lon="6.61956">
        <ele>1410</ele>
        <time>2016-04-20T11:34:26Z</time>
      </trkpt>
      <trkpt lat="44.40017" lon="6.61958">
        <ele>1410.8</ele>
        <time>2016-04-20T11:34:30Z</time>
      </trkpt>
      <trkpt lat="44.4002" lon="6.61962">
        <ele>1411.8</ele>
        <time>2016-04-20T11:34:34Z</time>
      </trkpt>
      <trkpt lat="44.40024" lon="6.61966">
        <ele>1413</ele>
        <time>2016-04-20T11:34:38Z</time>
      </trkpt>
      <trkpt lat="44.40027" lon="6.61971">
        <ele>1414.4</ele>
        <time>2016-04-20T11:34:42Z</time>
      </trkpt>
      <trkpt lat="44.4003" lon="6.61976">
        <ele>1415.7</ele>
        <time>2016-04-20T11:34:46Z</time>
      </trkpt>
      <trkpt lat="44.40034" lon="6.61979">
        <ele>1416.9</ele>
        <time>2016-04-20T11:34:50Z</time>
      </trkpt>
      <trkpt lat="44.40058" lon="6.61997">
        <ele>1424.6</ele>
        <time>2016-04-20T11:35:42Z</time>
      </trkpt>
      <trkpt lat="44.40061" lon="6.62002">
        <ele>1425.6</ele>
        <time>2016-04-20T11:35:46Z</time>
      </trkpt>
      <trkpt lat="44.40064" lon="6.62007">
        <ele>1425.6</ele>
        <time>2016-04-20T11:35:50Z</time>
      </trkpt>
      <trkpt lat="44.40068" lon="6.6201">
        <ele>1426</ele>
        <time>2016-04-20T11:35:54Z</time>
      </trkpt>
      <trkpt lat="44.40072" lon="6.62014">
        <ele>1426.5</ele>
        <time>2016-04-20T11:35:58Z</time>
      </trkpt>
      <trkpt lat="44.40077" lon="6.62016">
        <ele>1427.3</ele>
        <time>2016-04-20T11:36:02Z</time>
      </trkpt>
      <trkpt lat="44.40081" lon="6.62016">
        <ele>1428</ele>
        <time>2016-04-20T11:36:06Z</time>
      </trkpt>
      <trkpt lat="44.40085" lon="6.62015">
        <ele>1428.7</ele>
        <time>2016-04-20T11:36:10Z</time>
      </trkpt>
      <trkpt lat="44.4009" lon="6.62013">
        <ele>1429.3</ele>
        <time>2016-04-20T11:36:14Z</time>
      </trkpt>
      <trkpt lat="44.40095" lon="6.62011">
        <ele>1429.8</ele>
        <time>2016-04-20T11:36:18Z</time>
      </trkpt>
      <trkpt lat="44.40102" lon="6.6201">
        <ele>1430.4</ele>
        <time>2016-04-20T11:36:22Z</time>
      </trkpt>
      <trkpt lat="44.40108" lon="6.62009">
        <ele>1431</ele>
        <time>2016-04-20T11:36:26Z</time>
      </trkpt>
      <trkpt lat="44.40116" lon="6.62008">
        <ele>1431.6</ele>
        <time>2016-04-20T11:36:30Z</time>
      </trkpt>
      <trkpt lat="44.40124" lon="6.62008">
        <ele>1432.3</ele>
        <time>2016-04-20T11:36:34Z</time>
      </trkpt>
      <trkpt lat="44.40134" lon="6.62007">
        <ele>1433.1</ele>
        <time>2016-04-20T11:36:38Z</time>
      </trkpt>
      <trkpt lat="44.40142" lon="6.62007">
        <ele>1433.7</ele>
        <time>2016-04-20T11:36:42Z</time>
      </trkpt>
      <trkpt lat="44.40151" lon="6.62005">
        <ele>1434.5</ele>
        <time>2016-04-20T11:36:46Z</time>
      </trkpt>
      <trkpt lat="44.40161" lon="6.62">
        <ele>1435.6</ele>
        <time>2016-04-20T11:36:50Z</time>
      </trkpt>
      <trkpt lat="44.40173" lon="6.61995">
        <ele>1433.6</ele>
        <time>2016-04-20T11:36:54Z</time>
      </trkpt>
      <trkpt lat="44.40185" lon="6.61992">
        <ele>1430.1</ele>
        <time>2016-04-20T11:36:58Z</time>
      </trkpt>
      <trkpt lat="44.40194" lon="6.61992">
        <ele>1428</ele>
        <time>2016-04-20T11:37:02Z</time>
      </trkpt>
      <trkpt lat="44.40202" lon="6.61994">
        <ele>1426.8</ele>
        <time>2016-04-20T11:37:06Z</time>
      </trkpt>
      <trkpt lat="44.40213" lon="6.61999">
        <ele>1426.2</ele>
        <time>2016-04-20T11:37:10Z</time>
      </trkpt>
      <trkpt lat="44.40226" lon="6.62005">
        <ele>1424.8</ele>
        <time>2016-04-20T11:37:14Z</time>
      </trkpt>
      <trkpt lat="44.40235" lon="6.62014">
        <ele>1424.8</ele>
        <time>2016-04-20T11:37:18Z</time>
      </trkpt>
      <trkpt lat="44.40246" lon="6.62022">
        <ele>1425.1</ele>
        <time>2016-04-20T11:37:22Z</time>
      </trkpt>
      <trkpt lat="44.40252" lon="6.62028">
        <ele>1426</ele>
        <time>2016-04-20T11:37:26Z</time>
      </trkpt>
      <trkpt lat="44.40258" lon="6.62033">
        <ele>1427.4</ele>
        <time>2016-04-20T11:37:30Z</time>
      </trkpt>
      <trkpt lat="44.40264" lon="6.62037">
        <ele>1428.6</ele>
        <time>2016-04-20T11:37:34Z</time>
      </trkpt>
      <trkpt lat="44.4027" lon="6.62041">
        <ele>1429.8</ele>
        <time>2016-04-20T11:37:38Z</time>
      </trkpt>
      <trkpt lat="44.40274" lon="6.62045">
        <ele>1431.1</ele>
        <time>2016-04-20T11:37:42Z</time>
      </trkpt>
      <trkpt lat="44.4028" lon="6.6205">
        <ele>1432.8</ele>
        <time>2016-04-20T11:37:46Z</time>
      </trkpt>
      <trkpt lat="44.40285" lon="6.62056">
        <ele>1434.7</ele>
        <time>2016-04-20T11:37:50Z</time>
      </trkpt>
      <trkpt lat="44.40291" lon="6.62059">
        <ele>1436.2</ele>
        <time>2016-04-20T11:37:54Z</time>
      </trkpt>
      <trkpt lat="44.40296" lon="6.62063">
        <ele>1437.7</ele>
        <time>2016-04-20T11:37:58Z</time>
      </trkpt>
      <trkpt lat="44.40302" lon="6.62068">
        <ele>1439.8</ele>
        <time>2016-04-20T11:38:02Z</time>
      </trkpt>
      <trkpt lat="44.40307" lon="6.62073">
        <ele>1442</ele>
        <time>2016-04-20T11:38:06Z</time>
      </trkpt>
      <trkpt lat="44.40312" lon="6.62078">
        <ele>1443.9</ele>
        <time>2016-04-20T11:38:10Z</time>
      </trkpt>
      <trkpt lat="44.40317" lon="6.62081">
        <ele>1445.8</ele>
        <time>2016-04-20T11:38:14Z</time>
      </trkpt>
      <trkpt lat="44.40322" lon="6.62085">
        <ele>1446.9</ele>
        <time>2016-04-20T11:38:18Z</time>
      </trkpt>
      <trkpt lat="44.40326" lon="6.62087">
        <ele>1447.3</ele>
        <time>2016-04-20T11:38:22Z</time>
      </trkpt>
      <trkpt lat="44.40331" lon="6.62089">
        <ele>1447.8</ele>
        <time>2016-04-20T11:38:26Z</time>
      </trkpt>
      <trkpt lat="44.40335" lon="6.62094">
        <ele>1447.8</ele>
        <time>2016-04-20T11:38:30Z</time>
      </trkpt>
      <trkpt lat="44.40339" lon="6.62098">
        <ele>1447.6</ele>
        <time>2016-04-20T11:38:34Z</time>
      </trkpt>
      <trkpt lat="44.40343" lon="6.62102">
        <ele>1447.4</ele>
        <time>2016-04-20T11:38:38Z</time>
      </trkpt>
      <trkpt lat="44.40346" lon="6.62108">
        <ele>1447.6</ele>
        <time>2016-04-20T11:38:42Z</time>
      </trkpt>
      <trkpt lat="44.40352" lon="6.62113">
        <ele>1447.8</ele>
        <time>2016-04-20T11:38:46Z</time>
      </trkpt>
      <trkpt lat="44.4036" lon="6.62116">
        <ele>1448</ele>
        <time>2016-04-20T11:38:54Z</time>
      </trkpt>
      <trkpt lat="44.40365" lon="6.62118">
        <ele>1448.3</ele>
        <time>2016-04-20T11:38:58Z</time>
      </trkpt>
      <trkpt lat="44.4037" lon="6.6212">
        <ele>1448.6</ele>
        <time>2016-04-20T11:39:02Z</time>
      </trkpt>
      <trkpt lat="44.40375" lon="6.62121">
        <ele>1448.9</ele>
        <time>2016-04-20T11:39:06Z</time>
      </trkpt>
      <trkpt lat="44.40379" lon="6.62122">
        <ele>1449.1</ele>
        <time>2016-04-20T11:39:10Z</time>
      </trkpt>
      <trkpt lat="44.40385" lon="6.62122">
        <ele>1449.2</ele>
        <time>2016-04-20T11:39:14Z</time>
      </trkpt>
      <trkpt lat="44.40389" lon="6.62122">
        <ele>1449.3</ele>
        <time>2016-04-20T11:39:18Z</time>
      </trkpt>
      <trkpt lat="44.40396" lon="6.62123">
        <ele>1449.9</ele>
        <time>2016-04-20T11:39:22Z</time>
      </trkpt>
      <trkpt lat="44.40402" lon="6.62124">
        <ele>1450.1</ele>
        <time>2016-04-20T11:39:26Z</time>
      </trkpt>
      <trkpt lat="44.40409" lon="6.62124">
        <ele>1450.4</ele>
        <time>2016-04-20T11:39:30Z</time>
      </trkpt>
      <trkpt lat="44.40415" lon="6.62128">
        <ele>1451.9</ele>
        <time>2016-04-20T11:39:34Z</time>
      </trkpt>
      <trkpt lat="44.40421" lon="6.62136">
        <ele>1453.8</ele>
        <time>2016-04-20T11:39:38Z</time>
      </trkpt>
      <trkpt lat="44.40426" lon="6.62142">
        <ele>1454.6</ele>
        <time>2016-04-20T11:39:42Z</time>
      </trkpt>
      <trkpt lat="44.4043" lon="6.62151">
        <ele>1456.4</ele>
        <time>2016-04-20T11:39:46Z</time>
      </trkpt>
      <trkpt lat="44.40435" lon="6.62159">
        <ele>1457.8</ele>
        <time>2016-04-20T11:39:50Z</time>
      </trkpt>
      <trkpt lat="44.40441" lon="6.62167">
        <ele>1458.9</ele>
        <time>2016-04-20T11:39:54Z</time>
      </trkpt>
      <trkpt lat="44.40447" lon="6.62178">
        <ele>1457.9</ele>
        <time>2016-04-20T11:39:58Z</time>
      </trkpt>
      <trkpt lat="44.40452" lon="6.62188">
        <ele>1457.6</ele>
        <time>2016-04-20T11:40:02Z</time>
      </trkpt>
      <trkpt lat="44.40457" lon="6.62198">
        <ele>1457.8</ele>
        <time>2016-04-20T11:40:06Z</time>
      </trkpt>
      <trkpt lat="44.40463" lon="6.62209">
        <ele>1458.6</ele>
        <time>2016-04-20T11:40:10Z</time>
      </trkpt>
      <trkpt lat="44.40467" lon="6.62221">
        <ele>1460.1</ele>
        <time>2016-04-20T11:40:14Z</time>
      </trkpt>
      <trkpt lat="44.40471" lon="6.6223">
        <ele>1461.7</ele>
        <time>2016-04-20T11:40:18Z</time>
      </trkpt>
      <trkpt lat="44.40476" lon="6.62239">
        <ele>1463.4</ele>
        <time>2016-04-20T11:40:22Z</time>
      </trkpt>
      <trkpt lat="44.40482" lon="6.62247">
        <ele>1465.9</ele>
        <time>2016-04-20T11:40:26Z</time>
      </trkpt>
      <trkpt lat="44.40492" lon="6.6226">
        <ele>1467.6</ele>
        <time>2016-04-20T11:40:30Z</time>
      </trkpt>
      <trkpt lat="44.40501" lon="6.62265">
        <ele>1468.6</ele>
        <time>2016-04-20T11:40:34Z</time>
      </trkpt>
      <trkpt lat="44.40507" lon="6.6227">
        <ele>1468.7</ele>
        <time>2016-04-20T11:40:38Z</time>
      </trkpt>
      <trkpt lat="44.40512" lon="6.62276">
        <ele>1469</ele>
        <time>2016-04-20T11:40:42Z</time>
      </trkpt>
      <trkpt lat="44.40519" lon="6.62279">
        <ele>1469.4</ele>
        <time>2016-04-20T11:40:46Z</time>
      </trkpt>
      <trkpt lat="44.40526" lon="6.6228">
        <ele>1469.8</ele>
        <time>2016-04-20T11:40:50Z</time>
      </trkpt>
      <trkpt lat="44.40533" lon="6.62282">
        <ele>1470.4</ele>
        <time>2016-04-20T11:40:54Z</time>
      </trkpt>
      <trkpt lat="44.40541" lon="6.62287">
        <ele>1471.5</ele>
        <time>2016-04-20T11:40:58Z</time>
      </trkpt>
      <trkpt lat="44.40548" lon="6.62287">
        <ele>1472.1</ele>
        <time>2016-04-20T11:41:02Z</time>
      </trkpt>
      <trkpt lat="44.40556" lon="6.62292">
        <ele>1473.3</ele>
        <time>2016-04-20T11:41:06Z</time>
      </trkpt>
      <trkpt lat="44.40561" lon="6.62297">
        <ele>1474.7</ele>
        <time>2016-04-20T11:41:10Z</time>
      </trkpt>
      <trkpt lat="44.40568" lon="6.62302">
        <ele>1476.5</ele>
        <time>2016-04-20T11:41:14Z</time>
      </trkpt>
      <trkpt lat="44.40574" lon="6.62306">
        <ele>1478.1</ele>
        <time>2016-04-20T11:41:18Z</time>
      </trkpt>
      <trkpt lat="44.40578" lon="6.62308">
        <ele>1479.1</ele>
        <time>2016-04-20T11:41:22Z</time>
      </trkpt>
      <trkpt lat="44.40583" lon="6.62312">
        <ele>1480.8</ele>
        <time>2016-04-20T11:41:26Z</time>
      </trkpt>
      <trkpt lat="44.40588" lon="6.62317">
        <ele>1482.5</ele>
        <time>2016-04-20T11:41:30Z</time>
      </trkpt>
      <trkpt lat="44.40594" lon="6.62321">
        <ele>1483.8</ele>
        <time>2016-04-20T11:41:34Z</time>
      </trkpt>
      <trkpt lat="44.406" lon="6.62323">
        <ele>1484.9</ele>
        <time>2016-04-20T11:41:38Z</time>
      </trkpt>
      <trkpt lat="44.40605" lon="6.62325">
        <ele>1485.8</ele>
        <time>2016-04-20T11:41:42Z</time>
      </trkpt>
      <trkpt lat="44.40609" lon="6.62328">
        <ele>1486.9</ele>
        <time>2016-04-20T11:41:46Z</time>
      </trkpt>
      <trkpt lat="44.40616" lon="6.6233">
        <ele>1487.9</ele>
        <time>2016-04-20T11:41:50Z</time>
      </trkpt>
      <trkpt lat="44.40622" lon="6.62331">
        <ele>1488.7</ele>
        <time>2016-04-20T11:41:54Z</time>
      </trkpt>
      <trkpt lat="44.40626" lon="6.62332">
        <ele>1489.3</ele>
        <time>2016-04-20T11:41:58Z</time>
      </trkpt>
      <trkpt lat="44.40631" lon="6.62334">
        <ele>1490</ele>
        <time>2016-04-20T11:42:02Z</time>
      </trkpt>
      <trkpt lat="44.40634" lon="6.62336">
        <ele>1490.3</ele>
        <time>2016-04-20T11:42:06Z</time>
      </trkpt>
      <trkpt lat="44.40638" lon="6.62337">
        <ele>1490.6</ele>
        <time>2016-04-20T11:42:10Z</time>
      </trkpt>
      <trkpt lat="44.40654" lon="6.6235">
        <ele>1492.1</ele>
        <time>2016-04-20T11:42:30Z</time>
      </trkpt>
      <trkpt lat="44.40658" lon="6.62354">
        <ele>1492.5</ele>
        <time>2016-04-20T11:42:34Z</time>
      </trkpt>
      <trkpt lat="44.40664" lon="6.62356">
        <ele>1493</ele>
        <time>2016-04-20T11:42:38Z</time>
      </trkpt>
      <trkpt lat="44.40671" lon="6.62359">
        <ele>1493.8</ele>
        <time>2016-04-20T11:42:42Z</time>
      </trkpt>
      <trkpt lat="44.40673" lon="6.62359">
        <ele>1494.1</ele>
        <time>2016-04-20T11:42:46Z</time>
      </trkpt>
      <trkpt lat="44.40679" lon="6.62361">
        <ele>1494.9</ele>
        <time>2016-04-20T11:42:50Z</time>
      </trkpt>
      <trkpt lat="44.40689" lon="6.62366">
        <ele>1496.3</ele>
        <time>2016-04-20T11:42:54Z</time>
      </trkpt>
      <trkpt lat="44.40696" lon="6.62371">
        <ele>1497.6</ele>
        <time>2016-04-20T11:42:58Z</time>
      </trkpt>
      <trkpt lat="44.40704" lon="6.62376">
        <ele>1499</ele>
        <time>2016-04-20T11:43:02Z</time>
      </trkpt>
      <trkpt lat="44.4071" lon="6.6238">
        <ele>1500.1</ele>
        <time>2016-04-20T11:43:06Z</time>
      </trkpt>
      <trkpt lat="44.40718" lon="6.62383">
        <ele>1501.5</ele>
        <time>2016-04-20T11:43:10Z</time>
      </trkpt>
      <trkpt lat="44.40725" lon="6.62385">
        <ele>1502.7</ele>
        <time>2016-04-20T11:43:14Z</time>
      </trkpt>
      <trkpt lat="44.40733" lon="6.62387">
        <ele>1504.1</ele>
        <time>2016-04-20T11:43:18Z</time>
      </trkpt>
      <trkpt lat="44.40739" lon="6.6239">
        <ele>1505.3</ele>
        <time>2016-04-20T11:43:22Z</time>
      </trkpt>
      <trkpt lat="44.40746" lon="6.62392">
        <ele>1506.7</ele>
        <time>2016-04-20T11:43:26Z</time>
      </trkpt>
      <trkpt lat="44.40753" lon="6.62397">
        <ele>1508.5</ele>
        <time>2016-04-20T11:43:30Z</time>
      </trkpt>
      <trkpt lat="44.40758" lon="6.62399">
        <ele>1509.6</ele>
        <time>2016-04-20T11:43:34Z</time>
      </trkpt>
      <trkpt lat="44.40762" lon="6.62401">
        <ele>1510.5</ele>
        <time>2016-04-20T11:43:38Z</time>
      </trkpt>
      <trkpt lat="44.40768" lon="6.62401">
        <ele>1511.7</ele>
        <time>2016-04-20T11:43:42Z</time>
      </trkpt>
      <trkpt lat="44.40777" lon="6.62404">
        <ele>1513.8</ele>
        <time>2016-04-20T11:43:50Z</time>
      </trkpt>
      <trkpt lat="44.40787" lon="6.62407">
        <ele>1515.9</ele>
        <time>2016-04-20T11:43:58Z</time>
      </trkpt>
      <trkpt lat="44.40791" lon="6.62409">
        <ele>1517.1</ele>
        <time>2016-04-20T11:44:02Z</time>
      </trkpt>
      <trkpt lat="44.40797" lon="6.6241">
        <ele>1518.3</ele>
        <time>2016-04-20T11:44:06Z</time>
      </trkpt>
      <trkpt lat="44.40807" lon="6.6241">
        <ele>1520.3</ele>
        <time>2016-04-20T11:44:14Z</time>
      </trkpt>
      <trkpt lat="44.40813" lon="6.62413">
        <ele>1521.6</ele>
        <time>2016-04-20T11:44:18Z</time>
      </trkpt>
      <trkpt lat="44.40837" lon="6.62416">
        <ele>1526.4</ele>
        <time>2016-04-20T11:44:42Z</time>
      </trkpt>
      <trkpt lat="44.40842" lon="6.62416">
        <ele>1527.2</ele>
        <time>2016-04-20T11:44:46Z</time>
      </trkpt>
      <trkpt lat="44.40844" lon="6.62418">
        <ele>1527.2</ele>
        <time>2016-04-20T11:44:50Z</time>
      </trkpt>
      <trkpt lat="44.40849" lon="6.6242">
        <ele>1527.5</ele>
        <time>2016-04-20T11:44:54Z</time>
      </trkpt>
      <trkpt lat="44.40852" lon="6.62421">
        <ele>1527.9</ele>
        <time>2016-04-20T11:44:58Z</time>
      </trkpt>
      <trkpt lat="44.40858" lon="6.62423">
        <ele>1528.5</ele>
        <time>2016-04-20T11:45:02Z</time>
      </trkpt>
      <trkpt lat="44.40863" lon="6.62426">
        <ele>1528.7</ele>
        <time>2016-04-20T11:45:06Z</time>
      </trkpt>
      <trkpt lat="44.40866" lon="6.6243">
        <ele>1528.7</ele>
        <time>2016-04-20T11:45:10Z</time>
      </trkpt>
      <trkpt lat="44.40869" lon="6.62433">
        <ele>1528.8</ele>
        <time>2016-04-20T11:45:14Z</time>
      </trkpt>
      <trkpt lat="44.40873" lon="6.62436">
        <ele>1529</ele>
        <time>2016-04-20T11:45:18Z</time>
      </trkpt>
      <trkpt lat="44.40877" lon="6.62439">
        <ele>1529.4</ele>
        <time>2016-04-20T11:45:22Z</time>
      </trkpt>
      <trkpt lat="44.40878" lon="6.62446">
        <ele>1528.9</ele>
        <time>2016-04-20T11:45:26Z</time>
      </trkpt>
      <trkpt lat="44.40884" lon="6.62453">
        <ele>1529.2</ele>
        <time>2016-04-20T11:45:30Z</time>
      </trkpt>
      <trkpt lat="44.40891" lon="6.62454">
        <ele>1530.5</ele>
        <time>2016-04-20T11:45:34Z</time>
      </trkpt>
      <trkpt lat="44.40897" lon="6.62454">
        <ele>1531.6</ele>
        <time>2016-04-20T11:45:38Z</time>
      </trkpt>
      <trkpt lat="44.40905" lon="6.62461">
        <ele>1532.7</ele>
        <time>2016-04-20T11:45:42Z</time>
      </trkpt>
      <trkpt lat="44.40917" lon="6.62474">
        <ele>1534.3</ele>
        <time>2016-04-20T11:45:46Z</time>
      </trkpt>
      <trkpt lat="44.40925" lon="6.62479">
        <ele>1534.9</ele>
        <time>2016-04-20T11:45:50Z</time>
      </trkpt>
      <trkpt lat="44.40932" lon="6.62488">
        <ele>1535.6</ele>
        <time>2016-04-20T11:45:54Z</time>
      </trkpt>
      <trkpt lat="44.40939" lon="6.62493">
        <ele>1536.4</ele>
        <time>2016-04-20T11:45:58Z</time>
      </trkpt>
      <trkpt lat="44.40942" lon="6.62496">
        <ele>1536.9</ele>
        <time>2016-04-20T11:46:02Z</time>
      </trkpt>
      <trkpt lat="44.40945" lon="6.62502">
        <ele>1537.3</ele>
        <time>2016-04-20T11:46:06Z</time>
      </trkpt>
      <trkpt lat="44.4095" lon="6.62507">
        <ele>1537.4</ele>
        <time>2016-04-20T11:46:10Z</time>
      </trkpt>
      <trkpt lat="44.40955" lon="6.6251">
        <ele>1537.9</ele>
        <time>2016-04-20T11:46:14Z</time>
      </trkpt>
      <trkpt lat="44.4096" lon="6.62513">
        <ele>1538.6</ele>
        <time>2016-04-20T11:46:18Z</time>
      </trkpt>
      <trkpt lat="44.40966" lon="6.62514">
        <ele>1539.8</ele>
        <time>2016-04-20T11:46:22Z</time>
      </trkpt>
      <trkpt lat="44.40971" lon="6.62521">
        <ele>1540.5</ele>
        <time>2016-04-20T11:46:26Z</time>
      </trkpt>
      <trkpt lat="44.40975" lon="6.62525">
        <ele>1541.2</ele>
        <time>2016-04-20T11:46:30Z</time>
      </trkpt>
      <trkpt lat="44.4098" lon="6.62528">
        <ele>1542.2</ele>
        <time>2016-04-20T11:46:34Z</time>
      </trkpt>
      <trkpt lat="44.40983" lon="6.6253">
        <ele>1543.2</ele>
        <time>2016-04-20T11:46:38Z</time>
      </trkpt>
      <trkpt lat="44.40988" lon="6.62534">
        <ele>1544.2</ele>
        <time>2016-04-20T11:46:42Z</time>
      </trkpt>
      <trkpt lat="44.40992" lon="6.62536">
        <ele>1545.6</ele>
        <time>2016-04-20T11:46:46Z</time>
      </trkpt>
      <trkpt lat="44.40996" lon="6.62539">
        <ele>1546.6</ele>
        <time>2016-04-20T11:46:50Z</time>
      </trkpt>
      <trkpt lat="44.41011" lon="6.62546">
        <ele>1549.8</ele>
        <time>2016-04-20T11:47:06Z</time>
      </trkpt>
      <trkpt lat="44.41017" lon="6.6255">
        <ele>1550.9</ele>
        <time>2016-04-20T11:47:10Z</time>
      </trkpt>
      <trkpt lat="44.41017" lon="6.62558">
        <ele>1551.5</ele>
        <time>2016-04-20T11:47:14Z</time>
      </trkpt>
      <trkpt lat="44.41014" lon="6.62568">
        <ele>1551.8</ele>
        <time>2016-04-20T11:47:18Z</time>
      </trkpt>
      <trkpt lat="44.41015" lon="6.62574">
        <ele>1552.3</ele>
        <time>2016-04-20T11:47:22Z</time>
      </trkpt>
      <trkpt lat="44.4102" lon="6.62575">
        <ele>1553.2</ele>
        <time>2016-04-20T11:47:26Z</time>
      </trkpt>
      <trkpt lat="44.41023" lon="6.62577">
        <ele>1553.9</ele>
        <time>2016-04-20T11:47:30Z</time>
      </trkpt>
      <trkpt lat="44.41045" lon="6.62589">
        <ele>1557.8</ele>
        <time>2016-04-20T11:47:58Z</time>
      </trkpt>
      <trkpt lat="44.41056" lon="6.62596">
        <ele>1559.3</ele>
        <time>2016-04-20T11:48:14Z</time>
      </trkpt>
      <trkpt lat="44.41068" lon="6.6262">
        <ele>1560.2</ele>
        <time>2016-04-20T11:48:38Z</time>
      </trkpt>
      <trkpt lat="44.41078" lon="6.62624">
        <ele>1562.9</ele>
        <time>2016-04-20T11:48:50Z</time>
      </trkpt>
      <trkpt lat="44.41159" lon="6.62657">
        <ele>1582.7</ele>
        <time>2016-04-20T11:50:46Z</time>
      </trkpt>
      <trkpt lat="44.41161" lon="6.62657">
        <ele>1583.4</ele>
        <time>2016-04-20T11:50:50Z</time>
      </trkpt>
      <trkpt lat="44.41261" lon="6.62692">
        <ele>1594.1</ele>
        <time>2016-04-20T11:53:34Z</time>
      </trkpt>
      <trkpt lat="44.41264" lon="6.62693">
        <ele>1593.5</ele>
        <time>2016-04-20T11:53:38Z</time>
      </trkpt>
      <trkpt lat="44.41266" lon="6.62693">
        <ele>1593.1</ele>
        <time>2016-04-20T11:54:06Z</time>
      </trkpt>
      <trkpt lat="44.41245" lon="6.6269">
        <ele>1595.5</ele>
        <time>2016-04-20T11:54:10Z</time>
      </trkpt>
      <trkpt lat="44.41223" lon="6.62694">
        <ele>1590.5</ele>
        <time>2016-04-20T11:54:14Z</time>
      </trkpt>
      <trkpt lat="44.41201" lon="6.62683">
        <ele>1588.3</ele>
        <time>2016-04-20T11:54:18Z</time>
      </trkpt>
      <trkpt lat="44.41183" lon="6.62675">
        <ele>1586.8</ele>
        <time>2016-04-20T11:54:22Z</time>
      </trkpt>
      <trkpt lat="44.4117" lon="6.62668">
        <ele>1586.2</ele>
        <time>2016-04-20T11:54:26Z</time>
      </trkpt>
      <trkpt lat="44.41155" lon="6.62653">
        <ele>1581.1</ele>
        <time>2016-04-20T11:54:30Z</time>
      </trkpt>
      <trkpt lat="44.41146" lon="6.62646">
        <ele>1578.3</ele>
        <time>2016-04-20T11:54:34Z</time>
      </trkpt>
      <trkpt lat="44.41122" lon="6.62648">
        <ele>1572.8</ele>
        <time>2016-04-20T11:54:38Z</time>
      </trkpt>
      <trkpt lat="44.41095" lon="6.6264">
        <ele>1566.4</ele>
        <time>2016-04-20T11:54:42Z</time>
      </trkpt>
      <trkpt lat="44.41078" lon="6.62624">
        <ele>1562.9</ele>
        <time>2016-04-20T11:54:46Z</time>
      </trkpt>
      <trkpt lat="44.41059" lon="6.62614">
        <ele>1558</ele>
        <time>2016-04-20T11:54:50Z</time>
      </trkpt>
      <trkpt lat="44.41034" lon="6.626">
        <ele>1553.3</ele>
        <time>2016-04-20T11:54:54Z</time>
      </trkpt>
      <trkpt lat="44.41033" lon="6.62578">
        <ele>1555.8</ele>
        <time>2016-04-20T11:54:58Z</time>
      </trkpt>
      <trkpt lat="44.41018" lon="6.62573">
        <ele>1552.8</ele>
        <time>2016-04-20T11:55:02Z</time>
      </trkpt>
      <trkpt lat="44.40993" lon="6.62559">
        <ele>1546.2</ele>
        <time>2016-04-20T11:55:06Z</time>
      </trkpt>
      <trkpt lat="44.40967" lon="6.62539">
        <ele>1538.2</ele>
        <time>2016-04-20T11:55:10Z</time>
      </trkpt>
      <trkpt lat="44.40948" lon="6.62514">
        <ele>1536.1</ele>
        <time>2016-04-20T11:55:14Z</time>
      </trkpt>
      <trkpt lat="44.40925" lon="6.6248">
        <ele>1534.8</ele>
        <time>2016-04-20T11:55:18Z</time>
      </trkpt>
      <trkpt lat="44.409" lon="6.62463">
        <ele>1531.4</ele>
        <time>2016-04-20T11:55:22Z</time>
      </trkpt>
      <trkpt lat="44.40872" lon="6.62443">
        <ele>1528.3</ele>
        <time>2016-04-20T11:55:26Z</time>
      </trkpt>
      <trkpt lat="44.40831" lon="6.62431">
        <ele>1523.1</ele>
        <time>2016-04-20T11:55:30Z</time>
      </trkpt>
      <trkpt lat="44.40797" lon="6.62427">
        <ele>1517</ele>
        <time>2016-04-20T11:55:34Z</time>
      </trkpt>
      <trkpt lat="44.40764" lon="6.62412">
        <ele>1512.2</ele>
        <time>2016-04-20T11:55:38Z</time>
      </trkpt>
      <trkpt lat="44.40735" lon="6.62401">
        <ele>1505.7</ele>
        <time>2016-04-20T11:55:42Z</time>
      </trkpt>
      <trkpt lat="44.40705" lon="6.62389">
        <ele>1499.8</ele>
        <time>2016-04-20T11:55:46Z</time>
      </trkpt>
      <trkpt lat="44.40686" lon="6.62378">
        <ele>1496.3</ele>
        <time>2016-04-20T11:55:50Z</time>
      </trkpt>
      <trkpt lat="44.40664" lon="6.62364">
        <ele>1493.1</ele>
        <time>2016-04-20T11:55:54Z</time>
      </trkpt>
      <trkpt lat="44.40642" lon="6.62349">
        <ele>1490.9</ele>
        <time>2016-04-20T11:55:58Z</time>
      </trkpt>
      <trkpt lat="44.40607" lon="6.62332">
        <ele>1487.8</ele>
        <time>2016-04-20T11:56:02Z</time>
      </trkpt>
      <trkpt lat="44.40571" lon="6.62306">
        <ele>1477.6</ele>
        <time>2016-04-20T11:56:06Z</time>
      </trkpt>
      <trkpt lat="44.4054" lon="6.62288">
        <ele>1471.5</ele>
        <time>2016-04-20T11:56:10Z</time>
      </trkpt>
      <trkpt lat="44.40513" lon="6.62276">
        <ele>1469</ele>
        <time>2016-04-20T11:56:14Z</time>
      </trkpt>
      <trkpt lat="44.40488" lon="6.62254">
        <ele>1467.2</ele>
        <time>2016-04-20T11:56:18Z</time>
      </trkpt>
      <trkpt lat="44.40471" lon="6.62225">
        <ele>1460.8</ele>
        <time>2016-04-20T11:56:22Z</time>
      </trkpt>
      <trkpt lat="44.40454" lon="6.62185">
        <ele>1457</ele>
        <time>2016-04-20T11:56:26Z</time>
      </trkpt>
      <trkpt lat="44.40434" lon="6.62148">
        <ele>1454.7</ele>
        <time>2016-04-20T11:56:30Z</time>
      </trkpt>
      <trkpt lat="44.40398" lon="6.62133">
        <ele>1452.5</ele>
        <time>2016-04-20T11:56:34Z</time>
      </trkpt>
      <trkpt lat="44.40364" lon="6.62126">
        <ele>1449.2</ele>
        <time>2016-04-20T11:56:38Z</time>
      </trkpt>
      <trkpt lat="44.40337" lon="6.62101">
        <ele>1447.8</ele>
        <time>2016-04-20T11:56:42Z</time>
      </trkpt>
      <trkpt lat="44.40302" lon="6.62067">
        <ele>1439.5</ele>
        <time>2016-04-20T11:56:46Z</time>
      </trkpt>
      <trkpt lat="44.40267" lon="6.62038">
        <ele>1428.9</ele>
        <time>2016-04-20T11:56:50Z</time>
      </trkpt>
      <trkpt lat="44.40233" lon="6.62009">
        <ele>1424.1</ele>
        <time>2016-04-20T11:56:54Z</time>
      </trkpt>
      <trkpt lat="44.40206" lon="6.61996">
        <ele>1426.6</ele>
        <time>2016-04-20T11:56:58Z</time>
      </trkpt>
      <trkpt lat="44.40178" lon="6.61997">
        <ele>1432.8</ele>
        <time>2016-04-20T11:57:02Z</time>
      </trkpt>
      <trkpt lat="44.40154" lon="6.62008">
        <ele>1434.6</ele>
        <time>2016-04-20T11:57:06Z</time>
      </trkpt>
      <trkpt lat="44.40131" lon="6.62011">
        <ele>1432.5</ele>
        <time>2016-04-20T11:57:10Z</time>
      </trkpt>
      <trkpt lat="44.40106" lon="6.62013">
        <ele>1430.5</ele>
        <time>2016-04-20T11:57:14Z</time>
      </trkpt>
      <trkpt lat="44.40076" lon="6.62015">
        <ele>1427.2</ele>
        <time>2016-04-20T11:57:18Z</time>
      </trkpt>
      <trkpt lat="44.40053" lon="6.61993">
        <ele>1422.9</ele>
        <time>2016-04-20T11:57:22Z</time>
      </trkpt>
      <trkpt lat="44.40032" lon="6.61984">
        <ele>1417.4</ele>
        <time>2016-04-20T11:57:26Z</time>
      </trkpt>
      <trkpt lat="44.40018" lon="6.61987">
        <ele>1415.5</ele>
        <time>2016-04-20T11:57:30Z</time>
      </trkpt>
      <trkpt lat="44.40004" lon="6.61992">
        <ele>1413.7</ele>
        <time>2016-04-20T11:57:34Z</time>
      </trkpt>
      <trkpt lat="44.3999" lon="6.61993">
        <ele>1410.4</ele>
        <time>2016-04-20T11:57:38Z</time>
      </trkpt>
      <trkpt lat="44.39987" lon="6.62005">
        <ele>1409.9</ele>
        <time>2016-04-20T11:57:42Z</time>
      </trkpt>
      <trkpt lat="44.39989" lon="6.62029">
        <ele>1407</ele>
        <time>2016-04-20T11:57:46Z</time>
      </trkpt>
      <trkpt lat="44.39987" lon="6.6205">
        <ele>1403.8</ele>
        <time>2016-04-20T11:57:50Z</time>
      </trkpt>
      <trkpt lat="44.39983" lon="6.62071">
        <ele>1399.8</ele>
        <time>2016-04-20T11:57:54Z</time>
      </trkpt>
      <trkpt lat="44.39965" lon="6.62088">
        <ele>1392.4</ele>
        <time>2016-04-20T11:57:58Z</time>
      </trkpt>
      <trkpt lat="44.39966" lon="6.62099">
        <ele>1390</ele>
        <time>2016-04-20T11:58:02Z</time>
      </trkpt>
      <trkpt lat="44.39965" lon="6.62108">
        <ele>1387.6</ele>
        <time>2016-04-20T11:58:06Z</time>
      </trkpt>
      <trkpt lat="44.39963" lon="6.62117">
        <ele>1384.9</ele>
        <time>2016-04-20T11:58:10Z</time>
      </trkpt>
      <trkpt lat="44.39956" lon="6.62129">
        <ele>1380.5</ele>
        <time>2016-04-20T11:58:14Z</time>
      </trkpt>
      <trkpt lat="44.39957" lon="6.62138">
        <ele>1378.5</ele>
        <time>2016-04-20T11:58:18Z</time>
      </trkpt>
      <trkpt lat="44.39952" lon="6.62149">
        <ele>1375.3</ele>
        <time>2016-04-20T11:58:22Z</time>
      </trkpt>
      <trkpt lat="44.39949" lon="6.62161">
        <ele>1371.8</ele>
        <time>2016-04-20T11:58:26Z</time>
      </trkpt>
      <trkpt lat="44.39936" lon="6.62171">
        <ele>1367</ele>
        <time>2016-04-20T11:58:30Z</time>
      </trkpt>
      <trkpt lat="44.39917" lon="6.62181">
        <ele>1360.9</ele>
        <time>2016-04-20T11:58:34Z</time>
      </trkpt>
      <trkpt lat="44.39901" lon="6.62184">
        <ele>1356.9</ele>
        <time>2016-04-20T11:58:38Z</time>
      </trkpt>
      <trkpt lat="44.39881" lon="6.62183">
        <ele>1352.8</ele>
        <time>2016-04-20T11:58:42Z</time>
      </trkpt>
      <trkpt lat="44.39865" lon="6.62178">
        <ele>1350.1</ele>
        <time>2016-04-20T11:58:46Z</time>
      </trkpt>
      <trkpt lat="44.39849" lon="6.62182">
        <ele>1345.9</ele>
        <time>2016-04-20T11:58:50Z</time>
      </trkpt>
      <trkpt lat="44.3983" lon="6.62181">
        <ele>1342</ele>
        <time>2016-04-20T11:58:54Z</time>
      </trkpt>
      <trkpt lat="44.39812" lon="6.62183">
        <ele>1338.5</ele>
        <time>2016-04-20T11:58:58Z</time>
      </trkpt>
      <trkpt lat="44.39799" lon="6.62189">
        <ele>1335.3</ele>
        <time>2016-04-20T11:59:02Z</time>
      </trkpt>
      <trkpt lat="44.39786" lon="6.62186">
        <ele>1333.5</ele>
        <time>2016-04-20T11:59:06Z</time>
      </trkpt>
      <trkpt lat="44.39768" lon="6.62177">
        <ele>1331.4</ele>
        <time>2016-04-20T11:59:10Z</time>
      </trkpt>
      <trkpt lat="44.39749" lon="6.62166">
        <ele>1328.7</ele>
        <time>2016-04-20T11:59:14Z</time>
      </trkpt>
      <trkpt lat="44.39729" lon="6.62167">
        <ele>1322.1</ele>
        <time>2016-04-20T11:59:18Z</time>
      </trkpt>
      <trkpt lat="44.39715" lon="6.62168">
        <ele>1317.5</ele>
        <time>2016-04-20T11:59:22Z</time>
      </trkpt>
      <trkpt lat="44.39696" lon="6.62172">
        <ele>1311.5</ele>
        <time>2016-04-20T11:59:26Z</time>
      </trkpt>
      <trkpt lat="44.39673" lon="6.62185">
        <ele>1305.3</ele>
        <time>2016-04-20T11:59:30Z</time>
      </trkpt>
      <trkpt lat="44.39657" lon="6.62189">
        <ele>1300.5</ele>
        <time>2016-04-20T11:59:34Z</time>
      </trkpt>
      <trkpt lat="44.39656" lon="6.622">
        <ele>1301.2</ele>
        <time>2016-04-20T11:59:38Z</time>
      </trkpt>
      <trkpt lat="44.3966" lon="6.62216">
        <ele>1303.7</ele>
        <time>2016-04-20T11:59:42Z</time>
      </trkpt>
      <trkpt lat="44.39657" lon="6.62236">
        <ele>1304.2</ele>
        <time>2016-04-20T11:59:46Z</time>
      </trkpt>
      <trkpt lat="44.39656" lon="6.6226">
        <ele>1304.3</ele>
        <time>2016-04-20T11:59:50Z</time>
      </trkpt>
      <trkpt lat="44.3966" lon="6.62284">
        <ele>1303.1</ele>
        <time>2016-04-20T11:59:54Z</time>
      </trkpt>
      <trkpt lat="44.39665" lon="6.62296">
        <ele>1303.6</ele>
        <time>2016-04-20T11:59:58Z</time>
      </trkpt>
      <trkpt lat="44.39668" lon="6.62299">
        <ele>1304.1</ele>
        <time>2016-04-20T12:00:02Z</time>
      </trkpt>
      <trkpt lat="44.3967" lon="6.62299">
        <ele>1304.4</ele>
        <time>2016-04-20T12:00:06Z</time>
      </trkpt>
      <trkpt lat="44.39682" lon="6.62296">
        <ele>1306.4</ele>
        <time>2016-04-20T12:00:22Z</time>
      </trkpt>
      <trkpt lat="44.39689" lon="6.62296">
        <ele>1307.5</ele>
        <time>2016-04-20T12:00:34Z</time>
      </trkpt>
      <trkpt lat="44.39693" lon="6.62298">
        <ele>1307.9</ele>
        <time>2016-04-20T12:00:38Z</time>
      </trkpt>
      <trkpt lat="44.39697" lon="6.623">
        <ele>1308.3</ele>
        <time>2016-04-20T12:00:42Z</time>
      </trkpt>
      <trkpt lat="44.39701" lon="6.62301">
        <ele>1308.9</ele>
        <time>2016-04-20T12:00:46Z</time>
      </trkpt>
      <trkpt lat="44.39711" lon="6.62333">
        <ele>1307.4</ele>
        <time>2016-04-20T12:01:14Z</time>
      </trkpt>
      <trkpt lat="44.39699" lon="6.62346">
        <ele>1305.1</ele>
        <time>2016-04-20T12:01:18Z</time>
      </trkpt>
      <trkpt lat="44.39685" lon="6.62363">
        <ele>1302.8</ele>
        <time>2016-04-20T12:01:22Z</time>
      </trkpt>
      <trkpt lat="44.3967" lon="6.62364">
        <ele>1301</ele>
        <time>2016-04-20T12:01:26Z</time>
      </trkpt>
      <trkpt lat="44.39648" lon="6.62378">
        <ele>1294.1</ele>
        <time>2016-04-20T12:01:30Z</time>
      </trkpt>
      <trkpt lat="44.39625" lon="6.62392">
        <ele>1286</ele>
        <time>2016-04-20T12:01:34Z</time>
      </trkpt>
      <trkpt lat="44.39598" lon="6.62393">
        <ele>1276.5</ele>
        <time>2016-04-20T12:01:38Z</time>
      </trkpt>
      <trkpt lat="44.39595" lon="6.62413">
        <ele>1275.2</ele>
        <time>2016-04-20T12:01:42Z</time>
      </trkpt>
      <trkpt lat="44.39603" lon="6.62446">
        <ele>1274.4</ele>
        <time>2016-04-20T12:01:46Z</time>
      </trkpt>
      <trkpt lat="44.39604" lon="6.62482">
        <ele>1270.7</ele>
        <time>2016-04-20T12:01:50Z</time>
      </trkpt>
      <trkpt lat="44.39606" lon="6.62503">
        <ele>1268.6</ele>
        <time>2016-04-20T12:01:54Z</time>
      </trkpt>
      <trkpt lat="44.39593" lon="6.62502">
        <ele>1265</ele>
        <time>2016-04-20T12:01:58Z</time>
      </trkpt>
      <trkpt lat="44.39583" lon="6.62481">
        <ele>1264.8</ele>
        <time>2016-04-20T12:02:02Z</time>
      </trkpt>
      <trkpt lat="44.39577" lon="6.62479">
        <ele>1262.3</ele>
        <time>2016-04-20T12:02:06Z</time>
      </trkpt>
      <trkpt lat="44.39566" lon="6.62501">
        <ele>1255.3</ele>
        <time>2016-04-20T12:02:10Z</time>
      </trkpt>
      <trkpt lat="44.3956" lon="6.62527">
        <ele>1247</ele>
        <time>2016-04-20T12:02:14Z</time>
      </trkpt>
      <trkpt lat="44.39548" lon="6.62534">
        <ele>1241.3</ele>
        <time>2016-04-20T12:02:18Z</time>
      </trkpt>
      <trkpt lat="44.39542" lon="6.62538">
        <ele>1238.3</ele>
        <time>2016-04-20T12:02:22Z</time>
      </trkpt>
      <trkpt lat="44.39526" lon="6.62543">
        <ele>1232</ele>
        <time>2016-04-20T12:02:26Z</time>
      </trkpt>
      <trkpt lat="44.3951" lon="6.62552">
        <ele>1225.7</ele>
        <time>2016-04-20T12:02:30Z</time>
      </trkpt>
      <trkpt lat="44.39498" lon="6.62558">
        <ele>1221.5</ele>
        <time>2016-04-20T12:02:34Z</time>
      </trkpt>
      <trkpt lat="44.39493" lon="6.62573">
        <ele>1218.2</ele>
        <time>2016-04-20T12:02:38Z</time>
      </trkpt>
      <trkpt lat="44.39478" lon="6.62567">
        <ele>1213.1</ele>
        <time>2016-04-20T12:02:42Z</time>
      </trkpt>
      <trkpt lat="44.39477" lon="6.62584">
        <ele>1211.3</ele>
        <time>2016-04-20T12:02:46Z</time>
      </trkpt>
      <trkpt lat="44.39479" lon="6.62618">
        <ele>1204.7</ele>
        <time>2016-04-20T12:02:50Z</time>
      </trkpt>
      <trkpt lat="44.39476" lon="6.62657">
        <ele>1195.7</ele>
        <time>2016-04-20T12:02:54Z</time>
      </trkpt>
      <trkpt lat="44.39472" lon="6.62697">
        <ele>1189.2</ele>
        <time>2016-04-20T12:02:58Z</time>
      </trkpt>
      <trkpt lat="44.39483" lon="6.62729">
        <ele>1186.9</ele>
        <time>2016-04-20T12:03:02Z</time>
      </trkpt>
      <trkpt lat="44.39473" lon="6.62746">
        <ele>1183.2</ele>
        <time>2016-04-20T12:03:06Z</time>
      </trkpt>
      <trkpt lat="44.39458" lon="6.62753">
        <ele>1181</ele>
        <time>2016-04-20T12:03:10Z</time>
      </trkpt>
      <trkpt lat="44.3944" lon="6.62765">
        <ele>1179</ele>
        <time>2016-04-20T12:03:14Z</time>
      </trkpt>
      <trkpt lat="44.39415" lon="6.62772">
        <ele>1176.2</ele>
        <time>2016-04-20T12:03:18Z</time>
      </trkpt>
      <trkpt lat="44.39394" lon="6.62777">
        <ele>1175</ele>
        <time>2016-04-20T12:03:22Z</time>
      </trkpt>
      <trkpt lat="44.39374" lon="6.62788">
        <ele>1173.9</ele>
        <time>2016-04-20T12:03:26Z</time>
      </trkpt>
      <trkpt lat="44.39349" lon="6.62796">
        <ele>1172.5</ele>
        <time>2016-04-20T12:03:30Z</time>
      </trkpt>
      <trkpt lat="44.3932" lon="6.628">
        <ele>1170.4</ele>
        <time>2016-04-20T12:03:34Z</time>
      </trkpt>
      <trkpt lat="44.39286" lon="6.62801">
        <ele>1167.5</ele>
        <time>2016-04-20T12:03:38Z</time>
      </trkpt>
      <trkpt lat="44.39256" lon="6.62796">
        <ele>1164.7</ele>
        <time>2016-04-20T12:03:42Z</time>
      </trkpt>
      <trkpt lat="44.39243" lon="6.62799">
        <ele>1163.4</ele>
        <time>2016-04-20T12:03:46Z</time>
      </trkpt>
      <trkpt lat="44.39235" lon="6.62814">
        <ele>1162.9</ele>
        <time>2016-04-20T12:03:50Z</time>
      </trkpt>
      <trkpt lat="44.39227" lon="6.62833">
        <ele>1162.5</ele>
        <time>2016-04-20T12:03:54Z</time>
      </trkpt>
      <trkpt lat="44.39222" lon="6.62855">
        <ele>1162.4</ele>
        <time>2016-04-20T12:03:58Z</time>
      </trkpt>
      <trkpt lat="44.39219" lon="6.62879">
        <ele>1162.4</ele>
        <time>2016-04-20T12:04:02Z</time>
      </trkpt>
      <trkpt lat="44.39214" lon="6.62905">
        <ele>1162.1</ele>
        <time>2016-04-20T12:04:06Z</time>
      </trkpt>
      <trkpt lat="44.39192" lon="6.6293">
        <ele>1159.4</ele>
        <time>2016-04-20T12:04:10Z</time>
      </trkpt>
      <trkpt lat="44.39165" lon="6.6296">
        <ele>1154.8</ele>
        <time>2016-04-20T12:04:14Z</time>
      </trkpt>
      <trkpt lat="44.39136" lon="6.62997">
        <ele>1150.8</ele>
        <time>2016-04-20T12:04:18Z</time>
      </trkpt>
      <trkpt lat="44.39109" lon="6.63037">
        <ele>1148.2</ele>
        <time>2016-04-20T12:04:22Z</time>
      </trkpt>
      <trkpt lat="44.3909" lon="6.63082">
        <ele>1146</ele>
        <time>2016-04-20T12:04:26Z</time>
      </trkpt>
      <trkpt lat="44.39076" lon="6.63126">
        <ele>1145.5</ele>
        <time>2016-04-20T12:04:30Z</time>
      </trkpt>
      <trkpt lat="44.3905" lon="6.63159">
        <ele>1144.8</ele>
        <time>2016-04-20T12:04:34Z</time>
      </trkpt>
      <trkpt lat="44.39022" lon="6.63183">
        <ele>1143.9</ele>
        <time>2016-04-20T12:04:38Z</time>
      </trkpt>
      <trkpt lat="44.38991" lon="6.63206">
        <ele>1142.4</ele>
        <time>2016-04-20T12:04:42Z</time>
      </trkpt>
      <trkpt lat="44.38964" lon="6.63238">
        <ele>1141.5</ele>
        <time>2016-04-20T12:04:46Z</time>
      </trkpt>
      <trkpt lat="44.38941" lon="6.6327">
        <ele>1140.8</ele>
        <time>2016-04-20T12:04:50Z</time>
      </trkpt>
      <trkpt lat="44.38917" lon="6.63298">
        <ele>1139.6</ele>
        <time>2016-04-20T12:04:54Z</time>
      </trkpt>
      <trkpt lat="44.3889" lon="6.63319">
        <ele>1138.2</ele>
        <time>2016-04-20T12:04:58Z</time>
      </trkpt>
      <trkpt lat="44.38873" lon="6.63349">
        <ele>1137.2</ele>
        <time>2016-04-20T12:05:02Z</time>
      </trkpt>
      <trkpt lat="44.38867" lon="6.63384">
        <ele>1136.4</ele>
        <time>2016-04-20T12:05:06Z</time>
      </trkpt>
      <trkpt lat="44.38861" lon="6.63423">
        <ele>1135.6</ele>
        <time>2016-04-20T12:05:10Z</time>
      </trkpt>
      <trkpt lat="44.38854" lon="6.63467">
        <ele>1135.1</ele>
        <time>2016-04-20T12:05:14Z</time>
      </trkpt>
      <trkpt lat="44.38848" lon="6.63514">
        <ele>1134.5</ele>
        <time>2016-04-20T12:05:18Z</time>
      </trkpt>
      <trkpt lat="44.38841" lon="6.63563">
        <ele>1133.5</ele>
        <time>2016-04-20T12:05:22Z</time>
      </trkpt>
      <trkpt lat="44.38832" lon="6.63609">
        <ele>1132.1</ele>
        <time>2016-04-20T12:05:26Z</time>
      </trkpt>
      <trkpt lat="44.38824" lon="6.63642">
        <ele>1130.8</ele>
        <time>2016-04-20T12:05:30Z</time>
      </trkpt>
      <trkpt lat="44.38802" lon="6.63641">
        <ele>1130.8</ele>
        <time>2016-04-20T12:05:34Z</time>
      </trkpt>
      <trkpt lat="44.38782" lon="6.63633">
        <ele>1130.9</ele>
        <time>2016-04-20T12:05:38Z</time>
      </trkpt>
      <trkpt lat="44.38762" lon="6.63627">
        <ele>1131</ele>
        <time>2016-04-20T12:05:42Z</time>
      </trkpt>
      <trkpt lat="44.38743" lon="6.63621">
        <ele>1131</ele>
        <time>2016-04-20T12:05:46Z</time>
      </trkpt>
      <trkpt lat="44.38724" lon="6.63614">
        <ele>1130.7</ele>
        <time>2016-04-20T12:05:50Z</time>
      </trkpt>
      <trkpt lat="44.38708" lon="6.63607">
        <ele>1130.3</ele>
        <time>2016-04-20T12:05:54Z</time>
      </trkpt>
      <trkpt lat="44.38693" lon="6.63606">
        <ele>1130</ele>
        <time>2016-04-20T12:05:58Z</time>
      </trkpt>
      <trkpt lat="44.38687" lon="6.63612">
        <ele>1129.8</ele>
        <time>2016-04-20T12:06:02Z</time>
      </trkpt>
      <trkpt lat="44.38686" lon="6.63622">
        <ele>1129.8</ele>
        <time>2016-04-20T12:06:18Z</time>
      </trkpt>
      <trkpt lat="44.38685" lon="6.63635">
        <ele>1129.9</ele>
        <time>2016-04-20T12:06:22Z</time>
      </trkpt>
      <trkpt lat="44.38682" lon="6.63646">
        <ele>1129.9</ele>
        <time>2016-04-20T12:06:26Z</time>
      </trkpt>
      <trkpt lat="44.38679" lon="6.63652">
        <ele>1129.9</ele>
        <time>2016-04-20T12:06:30Z</time>
      </trkpt>
      <trkpt lat="44.38684" lon="6.63647">
        <ele>1129.9</ele>
        <time>2016-04-20T12:07:26Z</time>
      </trkpt>
      <trkpt lat="44.38691" lon="6.63663">
        <ele>1130</ele>
        <time>2016-04-20T12:07:30Z</time>
      </trkpt>
      <trkpt lat="44.38701" lon="6.63665">
        <ele>1130</ele>
        <time>2016-04-20T12:07:34Z</time>
      </trkpt>
      <trkpt lat="44.38706" lon="6.63658">
        <ele>1130</ele>
        <time>2016-04-20T12:07:38Z</time>
      </trkpt>
      <trkpt lat="44.38711" lon="6.63651">
        <ele>1130.1</ele>
        <time>2016-04-20T12:07:42Z</time>
      </trkpt>
      <trkpt lat="44.38699" lon="6.63668">
        <ele>1130</ele>
        <time>2016-04-20T12:08:02Z</time>
      </trkpt>
      <trkpt lat="44.38694" lon="6.63672">
        <ele>1130</ele>
        <time>2016-04-20T12:08:06Z</time>
      </trkpt>
      <trkpt lat="44.38688" lon="6.63685">
        <ele>1130</ele>
        <time>2016-04-20T12:08:18Z</time>
      </trkpt>
      <trkpt lat="44.38685" lon="6.63684">
        <ele>1130.1</ele>
        <time>2016-04-20T12:08:22Z</time>
      </trkpt>
      <trkpt lat="44.38662" lon="6.63683">
        <ele>1130.1</ele>
        <time>2016-04-20T12:08:26Z</time>
      </trkpt>
      <trkpt lat="44.38663" lon="6.63683">
        <ele>1130.1</ele>
        <time>2016-04-20T12:08:30Z</time>
      </trkpt>
      <trkpt lat="44.38718" lon="6.63635">
        <ele>1130.3</ele>
        <time>2016-04-20T12:09:14Z</time>
      </trkpt>
      <trkpt lat="44.38716" lon="6.63644">
        <ele>1130.2</ele>
        <time>2016-04-20T12:09:22Z</time>
      </trkpt>
      <trkpt lat="44.38715" lon="6.63628">
        <ele>1130.3</ele>
        <time>2016-04-20T12:09:38Z</time>
      </trkpt>
      <trkpt lat="44.3871" lon="6.63615">
        <ele>1130.3</ele>
        <time>2016-04-20T12:09:42Z</time>
      </trkpt>
      <trkpt lat="44.38701" lon="6.63623">
        <ele>1130.1</ele>
        <time>2016-04-20T12:09:50Z</time>
      </trkpt>
    </trkseg>
  </trk>
</gpx>